M I D A S
Marine Information and Data Acquisition System
Tripno 2172 of the Zeeleeuw from 2011-08-26 05:31:22 to 2011-08-26 13:25:08
Back to CruiseResearch ActivitiesStationsMapUnderway DataData graphs

EquipmentUnitsComment
TimeDGPSUTC
LatitudeDGPSDM.mWGS84
LongitudeDGPSDM.mWGS84
TemperatureSBE03/SBE38deg celciusITS90
ConductivitySBE21S/mITS90
SalinitySBE21 Practical Salinity Units
ChlorophylAChelsea fluorimeterg/lCalibrated in Aceton
Missing or incorrect values are displayed as -999
Sea surface data collected by the RV Zeeleeuw from 2011-08-26 05:18:30 to 2011-08-26 13:36:39
                                                                                    Next 1000 lines
Time Latitude Longitude Temperature Conductivity Salinity ChlorophylA
2011-08-26 05:18:40 51°13.635 2°56.018 22.6171 0.009811 0.052328 -3.020363
2011-08-26 05:18:46 51°13.635 2°56.018 22.6057 0.009811 0.052328 -3.020363
2011-08-26 05:18:51 51°13.635 2°56.018 22.5905 0.009811 0.052327 -3.020363
2011-08-26 05:18:55 51°13.635 2°56.018 22.6093 0.009811 0.052326 -3.020363
2011-08-26 05:19:00 51°13.635 2°56.018 22.6163 0.009811 0.052324 -3.020363
2011-08-26 05:19:06 51°13.635 2°56.018 22.5925 0.009811 0.052324 -3.020363
2011-08-26 05:19:11 51°13.635 2°56.018 22.6032 0.009811 0.052322 -3.020363
2011-08-26 05:19:15 51°13.635 2°56.018 22.6011 0.009811 0.052322 -3.020363
2011-08-26 05:19:19 51°13.635 2°56.018 22.6014 0.009811 0.052321 -3.020363
2011-08-26 05:19:25 51°13.635 2°56.018 22.6015 0.009811 0.05232 -3.020363
2011-08-26 05:19:30 51°13.635 2°56.018 22.6028 0.009811 0.052319 -3.020363
2011-08-26 05:19:35 51°13.635 2°56.018 22.6029 0.009811 0.052317 -3.020363
2011-08-26 05:19:40 51°13.635 2°56.018 22.6032 0.009811 0.052316 -3.020363
2011-08-26 05:19:45 51°13.635 2°56.018 22.6035 0.009811 0.052316 -3.020363
2011-08-26 05:19:51 51°13.635 2°56.017 22.6038 0.009811 0.052315 -3.020363
2011-08-26 05:19:55 51°13.635 2°56.017 22.6044 0.009811 0.052314 -3.020363
2011-08-26 05:20:00 51°13.635 2°56.017 22.5889 0.009811 0.052312 -3.020363
2011-08-26 05:20:06 51°13.636 2°56.017 22.5594 0.009811 0.052311 -3.020363
2011-08-26 05:20:11 51°13.636 2°56.017 22.5325 0.009811 0.05231 -3.020363
2011-08-26 05:20:15 51°13.636 2°56.018 22.5417 0.009811 0.05231 -3.020363
2011-08-26 05:20:19 51°13.636 2°56.018 22.6039 0.009811 0.052309 -3.020363
2011-08-26 05:20:25 51°13.636 2°56.018 22.5936 0.009811 0.052307 -3.020363
2011-08-26 05:20:31 51°13.636 2°56.018 22.5879 0.009811 0.052305 -3.020363
2011-08-26 05:20:35 51°13.635 2°56.018 22.5894 0.009811 0.052304 -3.020363
2011-08-26 05:20:40 51°13.635 2°56.018 22.5983 0.009811 0.052303 -3.020363
2011-08-26 05:20:46 51°13.635 2°56.018 22.5993 0.009811 0.052303 -3.020363
2011-08-26 05:20:51 51°13.635 2°56.018 22.6002 0.009811 0.052302 -3.020363
2011-08-26 05:20:55 51°13.635 2°56.018 22.6005 0.009811 0.0523 -3.020363
2011-08-26 05:21:00 51°13.635 2°56.018 22.6001 0.009811 0.052299 -3.020363
2011-08-26 05:21:06 51°13.635 2°56.018 22.5999 0.009811 0.052297 -3.020363
2011-08-26 05:21:11 51°13.635 2°56.018 22.5938 0.009811 0.052296 -3.020363
2011-08-26 05:21:15 51°13.635 2°56.018 22.6183 0.009811 0.052296 -3.020363
2011-08-26 05:21:19 51°13.635 2°56.018 22.6253 0.009811 0.052294 -3.020363
2011-08-26 05:21:25 51°13.635 2°56.018 22.6271 0.009811 0.052293 -3.020363
2011-08-26 05:21:30 51°13.635 2°56.018 22.627 0.009811 0.052292 -3.020363
2011-08-26 05:21:35 51°13.634 2°56.018 22.6283 0.009811 0.05229 -3.020363
2011-08-26 05:21:40 51°13.634 2°56.018 22.5994 0.009811 0.052289 -3.020363
2011-08-26 05:21:45 51°13.634 2°56.018 22.4949 0.009811 0.052289 -3.020363
2011-08-26 05:21:51 51°13.634 2°56.017 22.4865 0.009811 0.052287 -3.020363
2011-08-26 05:21:55 51°13.634 2°56.016 22.4201 0.009811 0.052286 -3.020363
2011-08-26 05:22:00 51°13.635 2°56.014 22.6075 0.009811 0.052284 -3.020363
2011-08-26 05:22:06 51°13.635 2°56.009 22.5771 0.009811 0.052283 -3.020363
2011-08-26 05:22:11 51°13.636 2°56.005 22.6012 0.009811 0.052281 -3.020363
2011-08-26 05:22:15 51°13.637 2°56 22.5912 0.009811 0.052281 -3.020363
2011-08-26 05:22:21 51°13.639 2°55.992 22.5431 0.009811 0.052279 -3.020363
2011-08-26 05:22:27 51°13.641 2°55.982 22.5907 0.009811 0.052278 -3.020363
2011-08-26 05:22:32 51°13.644 2°55.974 22.5894 0.009811 0.052277 -3.020363
2011-08-26 05:22:38 51°13.646 2°55.962 22.5984 0.009914 0.052756 -3.020363
2011-08-26 05:22:44 51°13.649 2°55.949 22.6269 0.009914 0.052755 -3.020363
2011-08-26 05:22:49 51°13.651 2°55.938 22.6335 0.009914 0.052755 -3.020363
2011-08-26 05:22:54 51°13.653 2°55.928 22.6047 0.009811 0.052272 -3.020363
2011-08-26 05:22:59 51°13.655 2°55.918 22.6338 0.009914 0.052751 -3.020363
2011-08-26 05:23:04 51°13.657 2°55.908 22.6194 0.009811 0.052269 -3.020363
2011-08-26 05:23:09 51°13.659 2°55.898 22.603 0.009914 0.052748 -3.020363
2011-08-26 05:23:14 51°13.66 2°55.889 22.6063 0.009914 0.052746 -3.020363
2011-08-26 05:23:19 51°13.662 2°55.88 22.584 0.009914 0.052746 -3.020363
2011-08-26 05:23:24 51°13.664 2°55.871 22.5551 0.009914 0.052745 -3.020363
2011-08-26 05:23:29 51°13.666 2°55.862 22.6009 0.009914 0.052743 -3.020363
2011-08-26 05:23:34 51°13.668 2°55.854 22.5757 0.009914 0.052741 -3.020363
2011-08-26 05:23:39 51°13.67 2°55.845 22.6474 0.009914 0.05274 -3.020363
2011-08-26 05:23:44 51°13.672 2°55.836 22.6198 0.009914 0.052739 -3.020363
2011-08-26 05:23:49 51°13.674 2°55.828 22.6366 0.009914 0.052739 -3.020363
2011-08-26 05:23:54 51°13.677 2°55.819 22.6034 0.009914 0.052737 -3.020363
2011-08-26 05:23:59 51°13.681 2°55.81 22.6386 0.009914 0.052735 -3.020363
2011-08-26 05:24:04 51°13.685 2°55.802 22.6459 0.009914 0.052733 -3.020363
2011-08-26 05:24:09 51°13.689 2°55.793 22.6381 0.009914 0.052731 -3.020363
2011-08-26 05:24:14 51°13.693 2°55.785 22.6313 0.009914 0.05273 -3.020363
2011-08-26 05:24:19 51°13.698 2°55.777 22.6192 0.009914 0.05273 -3.020363
2011-08-26 05:24:24 51°13.703 2°55.769 22.6189 0.009914 0.052728 -3.020363
2011-08-26 05:24:29 51°13.708 2°55.761 22.638 0.009914 0.052726 -3.020363
2011-08-26 05:24:34 51°13.713 2°55.754 22.6328 0.009914 0.052725 -3.020363
2011-08-26 05:24:39 51°13.718 2°55.748 22.6324 0.009914 0.052723 -3.020363
2011-08-26 05:24:44 51°13.723 2°55.741 22.6273 0.009914 0.052721 -3.020363
2011-08-26 05:24:49 51°13.729 2°55.734 22.6422 0.009914 0.052721 -3.020363
2011-08-26 05:24:54 51°13.735 2°55.727 22.6684 0.009914 0.05272 -3.020363
2011-08-26 05:24:59 51°13.741 2°55.721 22.6232 0.009914 0.052718 -3.020363
2011-08-26 05:25:04 51°13.747 2°55.715 22.6042 0.009914 0.052717 -3.020363
2011-08-26 05:25:09 51°13.753 2°55.709 22.6205 0.009914 0.052715 -3.020363
2011-08-26 05:25:14 51°13.759 2°55.704 22.6179 0.009914 0.052714 -3.020363
2011-08-26 05:25:19 51°13.764 2°55.698 22.6156 0.009914 0.052714 -3.020363
2011-08-26 05:25:23 51°13.769 2°55.694 22.615 0.009914 0.052712 -3.020363
2011-08-26 05:25:29 51°13.776 2°55.688 22.6115 0.009914 0.052711 -3.020363
2011-08-26 05:25:34 51°13.782 2°55.683 22.6116 0.009914 0.052709 -3.020363
2011-08-26 05:25:39 51°13.789 2°55.679 22.6134 0.009914 0.052708 -3.020363
2011-08-26 05:25:44 51°13.795 2°55.674 22.6159 0.009914 0.052706 -3.020363
2011-08-26 05:25:49 51°13.802 2°55.67 22.6163 0.009914 0.052706 -3.020363
2011-08-26 05:25:54 51°13.808 2°55.666 22.6196 0.009914 0.052705 -3.020363
2011-08-26 05:25:59 51°13.815 2°55.662 22.6196 0.009914 0.052703 -3.020363
2011-08-26 05:26:04 51°13.821 2°55.659 22.6313 0.009914 0.052702 -3.020363
2011-08-26 05:26:09 51°13.827 2°55.655 22.6008 0.009914 0.0527 -3.020363
2011-08-26 05:26:14 51°13.834 2°55.652 22.6061 0.009914 0.052699 -3.020363
2011-08-26 05:26:19 51°13.84 2°55.648 22.6439 0.009914 0.052699 -3.020363
2011-08-26 05:26:24 51°13.847 2°55.645 22.6613 0.009914 0.052698 -3.020363
2011-08-26 05:26:29 51°13.853 2°55.642 22.6151 0.009914 0.052697 -3.020363
2011-08-26 05:26:34 51°13.859 2°55.639 22.6112 0.009914 0.052695 -3.020363
2011-08-26 05:26:39 51°13.865 2°55.636 22.6465 0.009914 0.052694 -3.020363
2011-08-26 05:26:44 51°13.871 2°55.634 22.6309 0.009914 0.052693 -3.020363
2011-08-26 05:26:49 51°13.877 2°55.631 22.6706 0.009914 0.052693 -3.020363
2011-08-26 05:26:54 51°13.883 2°55.629 22.6709 0.009914 0.052692 -3.020363
2011-08-26 05:26:59 51°13.889 2°55.628 22.6753 0.009914 0.052691 -3.020363
2011-08-26 05:27:04 51°13.895 2°55.626 22.6748 0.009914 0.052689 -3.020363
2011-08-26 05:27:09 51°13.9 2°55.625 22.6861 0.009914 0.052688 -3.020363
2011-08-26 05:27:14 51°13.906 2°55.625 22.6944 0.009914 0.052688 -3.020363
2011-08-26 05:27:19 51°13.911 2°55.624 22.6795 0.009914 0.052688 -3.020363
2011-08-26 05:27:24 51°13.917 2°55.624 22.6906 0.009914 0.052686 -3.020363
2011-08-26 05:27:29 51°13.922 2°55.625 22.6604 0.009914 0.052685 -3.020363
2011-08-26 05:27:34 51°13.926 2°55.625 22.6808 0.009914 0.052684 -3.020363
2011-08-26 05:27:39 51°13.93 2°55.626 22.6515 0.009914 0.052683 -3.020363
2011-08-26 05:27:44 51°13.935 2°55.627 22.6537 0.009914 0.052682 -3.020363
2011-08-26 05:27:49 51°13.939 2°55.629 22.6372 0.009914 0.052682 -3.020363
2011-08-26 05:27:54 51°13.942 2°55.63 22.6549 0.009914 0.05268 -3.020363
2011-08-26 05:27:59 51°13.946 2°55.632 22.6495 0.009914 0.05268 -3.020363
2011-08-26 05:28:03 51°13.949 2°55.633 22.6649 0.009914 0.052679 -3.020363
2011-08-26 05:28:08 51°13.952 2°55.635 22.6797 0.009914 0.052678 -3.020363
2011-08-26 05:28:14 51°13.955 2°55.636 22.6824 0.009914 0.052677 -3.020363
2011-08-26 05:28:18 51°13.957 2°55.637 22.6818 0.009914 0.052677 -3.020363
2011-08-26 05:28:23 51°13.959 2°55.638 22.6838 0.009914 0.052676 -3.020363
2011-08-26 05:28:28 51°13.96 2°55.638 22.6676 0.009914 0.052675 -3.020363
2011-08-26 05:28:33 51°13.961 2°55.638 22.6732 0.009914 0.052674 -3.020363
2011-08-26 05:28:38 51°13.961 2°55.638 22.6734 0.009914 0.052673 -3.020363
2011-08-26 05:28:43 51°13.962 2°55.636 22.6815 0.009914 0.052673 -3.020363
2011-08-26 05:28:47 51°13.962 2°55.635 22.6816 0.009914 0.052673 -3.020363
2011-08-26 05:28:52 51°13.962 2°55.632 22.677 0.009914 0.052671 -3.020363
2011-08-26 05:28:58 51°13.962 2°55.628 22.5931 0.009914 0.05267 -3.020363
2011-08-26 05:29:03 51°13.961 2°55.624 22.5691 0.009914 0.05267 -3.020363
2011-08-26 05:29:07 51°13.961 2°55.62 22.5598 0.009914 0.052669 -3.020363
2011-08-26 05:29:12 51°13.961 2°55.615 22.6352 0.009914 0.052668 -3.020363
2011-08-26 05:29:17 51°13.962 2°55.609 22.5511 0.009914 0.052668 -3.020363
2011-08-26 05:29:22 51°13.963 2°55.603 22.6013 0.009914 0.052668 -3.020363
2011-08-26 05:29:27 51°13.965 2°55.597 22.5951 0.009914 0.052666 -3.020363
2011-08-26 05:29:31 51°13.966 2°55.592 22.5565 0.009914 0.052666 -3.020363
2011-08-26 05:29:36 51°13.968 2°55.585 22.5371 0.009914 0.052665 -3.020363
2011-08-26 05:29:41 51°13.971 2°55.579 22.5018 0.009914 0.052665 -3.020363
2011-08-26 05:29:46 51°13.974 2°55.572 22.6017 0.009914 0.052665 -3.020363
2011-08-26 05:29:51 51°13.978 2°55.566 22.6203 0.009914 0.052664 -3.020363
2011-08-26 05:29:55 51°13.981 2°55.562 22.642 0.009914 0.052663 -3.020363
2011-08-26 05:30:00 51°13.986 2°55.556 22.6473 0.009914 0.052663 -3.020363
2011-08-26 05:30:05 51°13.992 2°55.55 22.6552 0.009914 0.052662 -3.020363
2011-08-26 05:30:10 51°13.998 2°55.544 22.6528 0.009914 0.052661 -3.020363
2011-08-26 05:30:15 51°14.005 2°55.536 22.6597 0.009914 0.052661 -3.020363
2011-08-26 05:30:20 51°14.013 2°55.529 22.6744 0.009914 0.052661 -3.020363
2011-08-26 05:30:26 51°14.024 2°55.52 22.6343 0.009914 0.05266 -3.020363
2011-08-26 05:30:31 51°14.034 2°55.512 22.6614 0.009914 0.05266 -3.020363
2011-08-26 05:30:35 51°14.041 2°55.505 22.6845 0.009914 0.052659 -3.020363
2011-08-26 05:30:41 51°14.053 2°55.494 22.6101 0.009914 0.052659 -3.020363
2011-08-26 05:30:46 51°14.063 2°55.483 22.5786 0.009914 0.052659 -3.020363
2011-08-26 05:30:51 51°14.074 2°55.473 22.6536 0.009914 0.052658 -3.020363
2011-08-26 05:30:56 51°14.085 2°55.463 22.6195 0.009914 0.052658 -3.020363
2011-08-26 05:31:02 51°14.097 2°55.451 22.5802 0.009914 0.052656 -3.020363
2011-08-26 05:31:07 51°14.109 2°55.441 22.6501 0.009914 0.052656 -3.020363
2011-08-26 05:31:12 51°14.12 2°55.43 22.6546 0.009914 0.052656 -3.020363
2011-08-26 05:31:16 51°14.129 2°55.422 22.61 0.009914 0.052656 -3.020363
2011-08-26 05:31:21 51°14.141 2°55.411 22.5861 0.009914 0.052655 -3.020363
2011-08-26 05:31:26 51°14.152 2°55.4 22.666 0.009914 0.052655 -3.020363
2011-08-26 05:31:31 51°14.164 2°55.39 22.6394 0.009914 0.052654 -3.020363
2011-08-26 05:31:36 51°14.176 2°55.378 22.5612 0.009914 0.052654 -3.020363
2011-08-26 05:31:41 51°14.187 2°55.367 22.6269 0.009914 0.052653 -3.020363
2011-08-26 05:31:46 51°14.199 2°55.356 22.6394 0.009914 0.052653 -3.020363
2011-08-26 05:31:51 51°14.211 2°55.344 22.6438 0.009914 0.052653 -3.020363
2011-08-26 05:31:56 51°14.223 2°55.332 22.5647 0.009914 0.052652 -3.020363
2011-08-26 05:32:01 51°14.235 2°55.321 22.6439 0.009914 0.052652 -3.020363
2011-08-26 05:32:06 51°14.248 2°55.31 22.6277 0.009914 0.052651 -3.020363
2011-08-26 05:32:11 51°14.26 2°55.298 22.6684 0.009914 0.052651 -3.020363
2011-08-26 05:32:16 51°14.273 2°55.286 22.6669 0.009914 0.052651 -3.020363
2011-08-26 05:32:21 51°14.285 2°55.274 22.6566 0.009914 0.05265 -3.020363
2011-08-26 05:32:26 51°14.298 2°55.261 22.6441 0.009914 0.05265 -3.020363
2011-08-26 05:32:32 51°14.313 2°55.245 22.6219 0.009914 0.05265 -3.020363
2011-08-26 05:32:37 51°14.326 2°55.232 22.6813 0.009914 0.052649 -3.020363
2011-08-26 05:32:42 51°14.339 2°55.219 22.5732 0.009914 0.052648 -3.020363
2011-08-26 05:32:47 51°14.352 2°55.205 22.6237 0.009914 0.052648 -3.020363
2011-08-26 05:32:52 51°14.365 2°55.192 22.5843 0.009914 0.052648 -3.020363
2011-08-26 05:32:57 51°14.378 2°55.178 22.6415 0.009914 0.052648 -3.020363
2011-08-26 05:33:03 51°14.394 2°55.163 22.7061 0.009914 0.052648 -3.020363
2011-08-26 05:33:08 51°14.407 2°55.149 22.5858 0.009914 0.052647 -3.020363
2011-08-26 05:33:13 51°14.42 2°55.134 22.662 0.009914 0.052646 -3.020363
2011-08-26 05:33:18 51°14.433 2°55.118 22.6261 0.009914 0.052646 -3.020363
2011-08-26 05:33:23 51°14.445 2°55.102 22.6509 0.009914 0.052646 -3.020363
2011-08-26 05:33:28 51°14.458 2°55.085 22.6159 0.009914 0.052646 -3.020363
2011-08-26 05:33:32 51°14.468 2°55.071 22.6776 0.009914 0.052645 -3.020363
2011-08-26 05:33:37 51°14.482 2°55.055 22.5912 0.009914 0.052645 -3.020363
2011-08-26 05:33:42 51°14.494 2°55.035 22.603 0.009914 0.052645 -3.020363
2011-08-26 05:33:47 51°14.507 2°55.017 22.6664 0.009914 0.052645 -3.020363
2011-08-26 05:33:52 51°14.518 2°54.996 22.6235 0.009914 0.052645 -3.020363
2011-08-26 05:33:56 51°14.528 2°54.98 22.6264 0.009914 0.052644 -3.020363
2011-08-26 05:34:02 51°14.541 2°54.954 22.5262 0.009914 0.052644 -3.020363
2011-08-26 05:34:06 51°14.551 2°54.937 22.5575 0.009914 0.052644 -3.020363
2011-08-26 05:34:11 51°14.563 2°54.917 22.6357 0.009914 0.052644 -3.020363
2011-08-26 05:34:16 51°14.576 2°54.898 22.618 0.009914 0.052644 -3.020363
2011-08-26 05:34:20 51°14.586 2°54.882 22.5445 0.009914 0.052643 -3.020363
2011-08-26 05:34:26 51°14.602 2°54.858 22.586 0.009914 0.052643 -3.020363
2011-08-26 05:34:31 51°14.615 2°54.839 22.5476 0.009914 0.052643 -3.020363
2011-08-26 05:34:36 51°14.628 2°54.821 22.629 0.009914 0.052643 -3.020363
2011-08-26 05:34:41 51°14.643 2°54.803 22.6 0.009914 0.052643 -3.020363
2011-08-26 05:34:46 51°14.656 2°54.785 22.649 0.009914 0.052643 -3.020363
2011-08-26 05:34:51 51°14.67 2°54.768 22.6151 0.009914 0.052643 -3.020363
2011-08-26 05:34:56 51°14.684 2°54.75 22.5673 0.009914 0.052642 -3.020363
2011-08-26 05:35:00 51°14.696 2°54.736 22.6329 0.009914 0.052642 -3.020363
2011-08-26 05:35:06 51°14.713 2°54.716 22.6007 0.009914 0.052641 -3.020363
2011-08-26 05:35:11 51°14.727 2°54.698 22.6336 0.009914 0.052641 -3.020363
2011-08-26 05:35:16 51°14.741 2°54.681 22.55 0.009914 0.052641 -3.020363
2011-08-26 05:35:21 51°14.755 2°54.665 22.5801 0.009914 0.052641 -3.020363
2011-08-26 05:35:26 51°14.77 2°54.65 22.5802 0.009914 0.052641 -3.020363
2011-08-26 05:35:31 51°14.785 2°54.635 22.6494 0.009914 0.052641 -3.020363
2011-08-26 05:35:36 51°14.8 2°54.622 22.6426 0.009914 0.052641 -3.020363
2011-08-26 05:35:40 51°14.812 2°54.611 22.6229 0.009914 0.052641 -3.020363
2011-08-26 05:35:46 51°14.83 2°54.593 22.6498 0.009914 0.052641 -3.020363
2011-08-26 05:35:51 51°14.845 2°54.579 22.6624 0.009914 0.052641 -3.020363
2011-08-26 05:35:56 51°14.861 2°54.564 22.6244 0.009914 0.052641 -3.020363
2011-08-26 05:36:00 51°14.872 2°54.552 22.6138 0.009914 0.052641 -3.020363
2011-08-26 05:36:06 51°14.89 2°54.534 22.6335 0.009914 0.052641 -3.020363
2011-08-26 05:36:11 51°14.905 2°54.519 22.6347 0.009914 0.05264 -3.020363
2011-08-26 05:36:16 51°14.92 2°54.505 22.6257 0.009914 0.05264 -3.020363
2011-08-26 05:36:21 51°14.935 2°54.49 22.6861 0.009914 0.052641 -3.020363
2011-08-26 05:36:26 51°14.95 2°54.476 22.6934 0.009914 0.05264 -3.020363
2011-08-26 05:36:31 51°14.964 2°54.461 22.7444 0.009914 0.05264 -3.020363
2011-08-26 05:36:36 51°14.979 2°54.445 22.6518 0.009914 0.052641 -3.020363
2011-08-26 05:36:40 51°14.989 2°54.431 22.607 0.009914 0.052641 -3.020363
2011-08-26 05:36:46 51°15.005 2°54.409 22.6654 0.009914 0.052641 -3.020363
2011-08-26 05:36:51 51°15.018 2°54.39 22.6169 0.009914 0.052641 -3.020363
2011-08-26 05:36:56 51°15.032 2°54.372 22.6656 0.009914 0.052641 -3.020363
2011-08-26 05:37:00 51°15.042 2°54.357 22.6384 0.009914 0.052641 -3.020363
2011-08-26 05:37:06 51°15.057 2°54.335 22.7089 0.009914 0.052641 -3.020363
2011-08-26 05:37:11 51°15.07 2°54.315 22.602 0.009914 0.052641 -3.020363
2011-08-26 05:37:16 51°15.081 2°54.294 22.6698 0.009914 0.052641 -3.020363
2011-08-26 05:37:20 51°15.091 2°54.278 22.5844 0.009914 0.052641 -3.020363
2011-08-26 05:37:26 51°15.105 2°54.253 22.6024 0.009914 0.052641 -3.020363
2011-08-26 05:37:31 51°15.118 2°54.233 22.61 0.009914 0.052641 -3.020363
2011-08-26 05:37:36 51°15.13 2°54.213 22.6338 0.009914 0.052642 -3.020363
2011-08-26 05:37:40 51°15.14 2°54.198 22.593 0.009914 0.052641 -3.020363
2011-08-26 05:37:46 51°15.154 2°54.174 22.6081 0.009914 0.052641 -3.020363
2011-08-26 05:37:51 51°15.167 2°54.156 22.6423 0.009914 0.052642 -3.020363
2011-08-26 05:37:56 51°15.18 2°54.137 22.619 0.009914 0.052642 -3.020363
2011-08-26 05:38:00 51°15.19 2°54.122 22.5953 0.009914 0.052643 -3.020363
2011-08-26 05:38:06 51°15.206 2°54.101 22.5666 0.009914 0.052643 -3.020363
2011-08-26 05:38:11 51°15.219 2°54.083 22.6428 0.009914 0.052643 -3.020363
2011-08-26 05:38:16 51°15.233 2°54.067 22.6594 0.009914 0.052643 -3.020363
2011-08-26 05:38:21 51°15.246 2°54.05 22.6612 0.009914 0.052643 -3.020363
2011-08-26 05:38:26 51°15.26 2°54.033 22.6843 0.009914 0.052643 -3.020363
2011-08-26 05:38:31 51°15.274 2°54.016 22.691 0.009914 0.052644 -3.020363
2011-08-26 05:38:36 51°15.287 2°53.998 22.6805 0.009914 0.052644 -3.020363
2011-08-26 05:38:40 51°15.297 2°53.984 22.666 0.009914 0.052644 -3.020363
2011-08-26 05:38:46 51°15.313 2°53.962 22.6674 0.009914 0.052644 -3.020363
2011-08-26 05:38:51 51°15.326 2°53.943 22.5948 0.009914 0.052644 -3.020363
2011-08-26 05:38:56 51°15.339 2°53.924 22.6271 0.009914 0.052644 -3.020363
2011-08-26 05:39:01 51°15.351 2°53.905 22.6426 0.009914 0.052645 -3.020363
2011-08-26 05:39:06 51°15.364 2°53.886 22.6644 0.009914 0.052645 -3.020363
2011-08-26 05:39:11 51°15.377 2°53.868 22.6313 0.009914 0.052645 -3.020363
2011-08-26 05:39:16 51°15.39 2°53.85 22.6369 0.009914 0.052645 -3.020363
2011-08-26 05:39:20 51°15.401 2°53.835 22.6157 0.009914 0.052646 -3.020363
2011-08-26 05:39:26 51°15.417 2°53.814 22.5991 0.009914 0.052646 -3.020363
2011-08-26 05:39:31 51°15.431 2°53.798 22.6475 0.009914 0.052646 -3.020363
2011-08-26 05:39:36 51°15.445 2°53.782 22.6666 0.009914 0.052646 -3.020363
2011-08-26 05:39:40 51°15.457 2°53.769 22.6343 0.009914 0.052647 -3.020363
2011-08-26 05:39:46 51°15.474 2°53.75 22.6264 0.009914 0.052647 -3.020363
2011-08-26 05:39:51 51°15.488 2°53.735 22.656 0.009914 0.052647 -3.020363
2011-08-26 05:39:56 51°15.503 2°53.72 22.6695 0.009914 0.052648 -3.020363
2011-08-26 05:40:00 51°15.515 2°53.707 22.6705 0.009914 0.052648 -3.020363
2011-08-26 05:40:06 51°15.532 2°53.689 22.6743 0.009914 0.052648 -3.020363
2011-08-26 05:40:11 51°15.546 2°53.673 22.6348 0.009914 0.052649 -3.020363
2011-08-26 05:40:16 51°15.561 2°53.657 22.6469 0.009914 0.052649 -3.020363
2011-08-26 05:40:21 51°15.575 2°53.642 22.6446 0.009914 0.052649 -3.020363
2011-08-26 05:40:26 51°15.59 2°53.627 22.6743 0.009914 0.052649 -3.020363
2011-08-26 05:40:31 51°15.604 2°53.612 22.6975 0.009914 0.05265 -3.020363
2011-08-26 05:40:36 51°15.619 2°53.596 22.6643 0.009914 0.05265 -3.020363
2011-08-26 05:40:40 51°15.63 2°53.583 22.6861 0.009914 0.052651 -3.020363
2011-08-26 05:40:46 51°15.647 2°53.564 22.7077 0.009914 0.052651 -3.020363
2011-08-26 05:40:51 51°15.661 2°53.547 22.6832 0.009914 0.052651 -3.020363
2011-08-26 05:40:56 51°15.674 2°53.529 22.6165 0.009914 0.052651 -3.020363
2011-08-26 05:41:00 51°15.685 2°53.515 22.6837 0.009914 0.052652 -3.020363
2011-08-26 05:41:06 51°15.702 2°53.495 22.6203 0.009914 0.052653 -3.020363
2011-08-26 05:41:11 51°15.715 2°53.477 22.6704 0.009914 0.052653 -3.020363
2011-08-26 05:41:16 51°15.729 2°53.461 22.6341 0.009914 0.052653 -3.020363
2011-08-26 05:41:20 51°15.741 2°53.448 22.5949 0.009914 0.052653 -3.020363
2011-08-26 05:41:26 51°15.758 2°53.428 22.6067 0.009914 0.052654 -3.020363
2011-08-26 05:41:31 51°15.773 2°53.415 22.65 0.009914 0.052654 -3.020363
2011-08-26 05:41:36 51°15.787 2°53.401 22.6457 0.009914 0.052655 -3.020363
2011-08-26 05:41:40 51°15.799 2°53.39 22.6933 0.009914 0.052655 -3.020363
2011-08-26 05:41:46 51°15.817 2°53.374 22.6796 0.009914 0.052655 -3.020363
2011-08-26 05:41:51 51°15.832 2°53.361 22.6738 0.009914 0.052656 -3.020363
2011-08-26 05:41:56 51°15.848 2°53.348 22.6606 0.009914 0.052656 -3.020363
2011-08-26 05:42:00 51°15.86 2°53.338 22.6702 0.009914 0.052656 -3.020363
2011-08-26 05:42:06 51°15.879 2°53.323 22.6027 0.009914 0.052657 -3.020363
2011-08-26 05:42:11 51°15.894 2°53.312 22.6479 0.009914 0.052657 -3.020363
2011-08-26 05:42:16 51°15.91 2°53.301 22.673 0.009914 0.052657 -3.020363
2011-08-26 05:42:20 51°15.923 2°53.292 22.6674 0.009914 0.052658 -3.020363
2011-08-26 05:42:26 51°15.942 2°53.28 22.6878 0.009914 0.052659 -3.020363
2011-08-26 05:42:31 51°15.958 2°53.27 22.694 0.009914 0.052659 -3.020363
2011-08-26 05:42:36 51°15.974 2°53.26 22.6519 0.009914 0.05266 -3.020363
2011-08-26 05:42:40 51°15.987 2°53.252 22.6739 0.009914 0.05266 -3.020363
2011-08-26 05:42:46 51°16.006 2°53.241 22.6948 0.009914 0.05266 -3.020363
2011-08-26 05:42:51 51°16.022 2°53.232 22.6925 0.009914 0.052661 -3.020363
2011-08-26 05:42:56 51°16.038 2°53.223 22.725 0.009914 0.052661 -3.020363
2011-08-26 05:43:00 51°16.051 2°53.215 22.699 0.009914 0.052662 -3.020363
2011-08-26 05:43:06 51°16.07 2°53.203 22.6726 0.009914 0.052663 -3.020363
2011-08-26 05:43:11 51°16.085 2°53.192 22.7079 0.009914 0.052663 -3.020363
2011-08-26 05:43:16 51°16.101 2°53.181 22.6965 0.009914 0.052663 -3.020363
2011-08-26 05:43:20 51°16.113 2°53.173 22.7205 0.009914 0.052664 -3.020363
2011-08-26 05:43:26 51°16.132 2°53.159 22.694 0.009914 0.052664 -3.020363
2011-08-26 05:43:31 51°16.147 2°53.147 22.7041 0.009914 0.052665 -3.020363
2011-08-26 05:43:36 51°16.163 2°53.135 22.6525 0.009914 0.052665 -3.020363
2011-08-26 05:43:40 51°16.175 2°53.125 22.696 0.009914 0.052666 -3.020363
2011-08-26 05:43:46 51°16.194 2°53.111 22.6972 0.009914 0.052666 -3.020363
2011-08-26 05:43:51 51°16.209 2°53.099 22.6954 0.009914 0.052667 -3.020363
2011-08-26 05:43:56 51°16.225 2°53.086 22.7009 0.009914 0.052668 -3.020363
2011-08-26 05:44:00 51°16.237 2°53.076 22.7017 0.009914 0.052669 -3.020363
2011-08-26 05:44:06 51°16.255 2°53.062 22.702 0.009914 0.052669 -3.020363
2011-08-26 05:44:11 51°16.271 2°53.05 22.7183 0.009914 0.05267 -3.020363
2011-08-26 05:44:16 51°16.287 2°53.038 22.6644 0.009914 0.05267 -3.020363
2011-08-26 05:44:20 51°16.299 2°53.029 22.6426 0.009914 0.05267 -3.020363
2011-08-26 05:44:26 51°16.317 2°53.015 22.6433 0.009914 0.052671 -3.020363
2011-08-26 05:44:31 51°16.333 2°53.004 22.6742 0.009914 0.052672 -3.020363
2011-08-26 05:44:36 51°16.349 2°52.994 22.703 0.009914 0.052673 -3.020363
2011-08-26 05:44:40 51°16.362 2°52.986 22.6762 0.009914 0.052673 -3.020363
2011-08-26 05:44:46 51°16.381 2°52.975 22.7142 0.009914 0.052673 -3.020363
2011-08-26 05:44:51 51°16.397 2°52.966 22.7249 0.009914 0.052674 -3.020363
2011-08-26 05:44:56 51°16.413 2°52.957 22.7062 0.009914 0.052675 -3.020363
2011-08-26 05:45:00 51°16.426 2°52.95 22.7228 0.009914 0.052676 -3.020363
2011-08-26 05:45:06 51°16.445 2°52.938 22.6961 0.009914 0.052677 -3.020363
2011-08-26 05:45:11 51°16.461 2°52.929 22.7097 0.009914 0.052678 -3.020363
2011-08-26 05:45:16 51°16.477 2°52.92 22.695 0.009914 0.052678 -3.020363
2011-08-26 05:45:20 51°16.49 2°52.912 22.7257 0.009914 0.052678 -3.020363
2011-08-26 05:45:26 51°16.509 2°52.901 22.7104 0.009914 0.052679 -3.020363
2011-08-26 05:45:31 51°16.524 2°52.891 22.7102 0.009914 0.05268 -3.020363
2011-08-26 05:45:36 51°16.54 2°52.881 22.7056 0.009914 0.05268 -3.020363
2011-08-26 05:45:40 51°16.553 2°52.873 22.7041 0.009914 0.052682 -3.020363
2011-08-26 05:45:46 51°16.572 2°52.862 22.6863 0.009914 0.052682 -3.020363
2011-08-26 05:45:51 51°16.588 2°52.852 22.7132 0.009914 0.052683 -3.020363
2011-08-26 05:45:56 51°16.604 2°52.844 22.714 0.009914 0.052683 -3.020363
2011-08-26 05:46:00 51°16.616 2°52.836 22.7278 0.009914 0.052684 -3.020363
2011-08-26 05:46:06 51°16.635 2°52.825 22.7264 0.009914 0.052685 -3.020363
2011-08-26 05:46:11 51°16.651 2°52.815 22.727 0.009914 0.052687 -3.020363
2011-08-26 05:46:16 51°16.667 2°52.804 22.7236 0.009914 0.052687 -3.020363
2011-08-26 05:46:20 51°16.679 2°52.796 22.7223 0.009914 0.052687 -3.020363
2011-08-26 05:46:26 51°16.698 2°52.782 22.7348 0.009914 0.052688 -3.020363
2011-08-26 05:46:31 51°16.713 2°52.771 22.7036 0.009914 0.052689 -3.020363
2011-08-26 05:46:36 51°16.728 2°52.759 22.7032 0.009914 0.05269 -3.020363
2011-08-26 05:46:40 51°16.74 2°52.749 22.6649 0.009914 0.052691 -3.020363
2011-08-26 05:46:46 51°16.758 2°52.736 22.6817 0.009914 0.052691 -3.020363
2011-08-26 05:46:51 51°16.773 2°52.725 22.647 0.009914 0.052692 -3.020363
2011-08-26 05:46:56 51°16.789 2°52.715 22.6868 0.009914 0.052693 -3.020363
2011-08-26 05:47:00 51°16.801 2°52.707 22.719 0.009914 0.052694 -3.020363
2011-08-26 05:47:06 51°16.82 2°52.696 22.7272 0.009914 0.052695 -3.020363
2011-08-26 05:47:11 51°16.836 2°52.688 22.7078 0.009914 0.052696 -3.020363
2011-08-26 05:47:16 51°16.851 2°52.679 22.715 0.009914 0.052696 -3.020363
2011-08-26 05:47:20 51°16.864 2°52.672 22.7452 0.009914 0.052697 -3.020363
2011-08-26 05:47:26 51°16.883 2°52.662 22.7198 0.009914 0.052698 -3.020363
2011-08-26 05:47:31 51°16.899 2°52.654 22.722 0.009914 0.052699 -3.020363
2011-08-26 05:47:36 51°16.914 2°52.646 22.7142 0.009914 0.0527 -3.020363
2011-08-26 05:47:40 51°16.927 2°52.639 22.7337 0.009914 0.052702 -3.020363
2011-08-26 05:47:46 51°16.946 2°52.629 22.7408 0.009914 0.052702 -3.020363
2011-08-26 05:47:51 51°16.962 2°52.621 22.7167 0.009914 0.052703 -3.020363
2011-08-26 05:47:56 51°16.977 2°52.612 22.7327 0.009914 0.052703 -3.020363
2011-08-26 05:48:00 51°16.99 2°52.606 22.7563 0.009914 0.052705 -3.020363
2011-08-26 05:48:06 51°17.009 2°52.596 22.6719 0.009914 0.052706 -3.020363
2011-08-26 05:48:11 51°17.025 2°52.587 22.7249 0.009914 0.052707 -3.020363
2011-08-26 05:48:16 51°17.04 2°52.578 22.6756 0.009914 0.052707 -3.020363
2011-08-26 05:48:20 51°17.053 2°52.571 22.7125 0.009914 0.052708 -3.020363
2011-08-26 05:48:26 51°17.071 2°52.561 22.7125 0.009914 0.052709 -3.020363
2011-08-26 05:48:31 51°17.087 2°52.552 22.7344 0.009914 0.05271 -3.020363
2011-08-26 05:48:36 51°17.103 2°52.545 22.7092 0.009914 0.052711 -3.020363
2011-08-26 05:48:40 51°17.115 2°52.538 22.6585 0.009914 0.052712 -3.020363
2011-08-26 05:48:46 51°17.134 2°52.53 22.7228 0.009914 0.052712 -3.020363
2011-08-26 05:48:50 51°17.147 2°52.526 22.7124 0.009914 0.052713 -3.020363
2011-08-26 05:48:56 51°17.166 2°52.52 22.7443 0.009914 0.052714 -3.020363
2011-08-26 05:49:00 51°17.179 2°52.516 22.7126 0.009914 0.052716 -3.020363
2011-08-26 05:49:06 51°17.198 2°52.511 22.6917 0.009914 0.052717 -3.020363
2011-08-26 05:49:11 51°17.215 2°52.507 22.7264 0.009914 0.052718 -3.020363
2011-08-26 05:49:16 51°17.231 2°52.504 22.7473 0.009914 0.052718 -3.020363
2011-08-26 05:49:20 51°17.244 2°52.502 22.7234 0.009914 0.052719 -3.020363
2011-08-26 05:49:26 51°17.263 2°52.498 22.6915 0.009914 0.05272 -3.020363
2011-08-26 05:49:31 51°17.28 2°52.496 22.7431 0.009914 0.052721 -3.020363
2011-08-26 05:49:36 51°17.296 2°52.493 22.7479 0.009914 0.052723 -3.020363
2011-08-26 05:49:40 51°17.309 2°52.491 22.7239 0.009914 0.052723 -3.020363
2011-08-26 05:49:46 51°17.328 2°52.488 22.7303 0.009914 0.052723 -3.020363
2011-08-26 05:49:51 51°17.345 2°52.485 22.7447 0.009914 0.052725 -3.020363
2011-08-26 05:49:56 51°17.361 2°52.482 22.7305 0.009914 0.052726 -3.020363
2011-08-26 05:50:01 51°17.377 2°52.479 22.744 0.009914 0.052727 -3.020363
2011-08-26 05:50:06 51°17.394 2°52.476 22.6904 0.009914 0.052729 -3.020363
2011-08-26 05:50:11 51°17.41 2°52.473 22.7444 0.009914 0.05273 -3.020363
2011-08-26 05:50:16 51°17.426 2°52.47 22.7606 0.009914 0.05273 -3.020363
2011-08-26 05:50:20 51°17.439 2°52.468 22.7348 0.009914 0.052731 -3.020363
2011-08-26 05:50:26 51°17.459 2°52.464 22.7438 0.009914 0.052732 -3.020363
2011-08-26 05:50:31 51°17.475 2°52.46 22.7353 0.009914 0.052733 -3.020363
2011-08-26 05:50:36 51°17.491 2°52.456 22.7439 0.009914 0.052735 -3.020363
2011-08-26 05:50:40 51°17.504 2°52.453 22.7421 0.009914 0.052736 -3.020363
2011-08-26 05:50:46 51°17.523 2°52.45 22.7232 0.009914 0.052736 -3.020363
2011-08-26 05:50:51 51°17.54 2°52.447 22.7144 0.009914 0.052737 -3.020363
2011-08-26 05:50:56 51°17.556 2°52.445 22.6977 0.009914 0.052739 -3.020363
2011-08-26 05:51:01 51°17.572 2°52.445 22.7431 0.009914 0.05274 -3.020363
2011-08-26 05:51:06 51°17.589 2°52.446 22.734 0.009914 0.052741 -3.020363
2011-08-26 05:51:11 51°17.604 2°52.446 22.7406 0.009914 0.052743 -3.020363
2011-08-26 05:51:16 51°17.621 2°52.448 22.7403 0.009914 0.052743 -3.020363
2011-08-26 05:51:20 51°17.634 2°52.449 22.7278 0.009914 0.052744 -3.020363
2011-08-26 05:51:26 51°17.653 2°52.452 22.743 0.009914 0.052745 -3.020363
2011-08-26 05:51:31 51°17.669 2°52.455 22.7464 0.009914 0.052747 -3.020363
2011-08-26 05:51:36 51°17.685 2°52.459 22.745 0.009914 0.052748 -3.020363
2011-08-26 05:51:41 51°17.7 2°52.463 22.7536 0.009914 0.05275 -3.020363
2011-08-26 05:51:46 51°17.716 2°52.467 22.7654 0.009914 0.05275 -3.020363
2011-08-26 05:51:51 51°17.732 2°52.471 22.7502 0.009914 0.052751 -3.020363
2011-08-26 05:51:56 51°17.748 2°52.475 22.7812 0.009914 0.052753 -3.020363
2011-08-26 05:52:00 51°17.761 2°52.478 22.7722 0.009914 0.052754 -3.020363
2011-08-26 05:52:06 51°17.78 2°52.482 22.7649 0.009914 0.052755 -3.020363
2011-08-26 05:52:11 51°17.796 2°52.485 22.7697 0.009914 0.052757 -3.020363
2011-08-26 05:52:16 51°17.812 2°52.488 22.7727 0.009914 0.052757 -3.020363
2011-08-26 05:52:21 51°17.828 2°52.492 22.7899 0.009914 0.052759 -3.020363
2011-08-26 05:52:26 51°17.844 2°52.495 22.7385 0.009914 0.05276 -3.020363
2011-08-26 05:52:31 51°17.859 2°52.499 22.7187 0.009914 0.052761 -3.020363
2011-08-26 05:52:36 51°17.875 2°52.502 22.7917 0.009914 0.052763 -3.020363
2011-08-26 05:52:40 51°17.888 2°52.506 22.7508 0.009914 0.052764 -3.020363
2011-08-26 05:52:46 51°17.907 2°52.511 22.7717 0.009914 0.052764 -3.020363
2011-08-26 05:52:51 51°17.922 2°52.517 22.7538 0.009914 0.052766 -3.020363
2011-08-26 05:52:56 51°17.938 2°52.521 22.7232 0.009914 0.052768 -3.020363
2011-08-26 05:53:00 51°17.951 2°52.525 22.7216 0.009914 0.052769 -3.020363
2011-08-26 05:53:06 51°17.969 2°52.533 22.7643 0.009914 0.05277 -3.020363
2011-08-26 05:53:11 51°17.984 2°52.54 22.7544 0.009914 0.052772 -3.020363
2011-08-26 05:53:16 51°18 2°52.548 22.7758 0.009914 0.052772 -3.020363
2011-08-26 05:53:20 51°18.012 2°52.554 22.7717 0.009914 0.052773 -3.020363
2011-08-26 05:53:26 51°18.03 2°52.564 22.7492 0.009914 0.052774 -3.020363
2011-08-26 05:53:31 51°18.045 2°52.572 22.7781 0.009914 0.052777 -3.020363
2011-08-26 05:53:36 51°18.059 2°52.581 22.7598 0.009914 0.052778 -3.020363
2011-08-26 05:53:41 51°18.074 2°52.591 22.7545 0.009914 0.052779 -3.020363
2011-08-26 05:53:46 51°18.089 2°52.601 22.7724 0.009914 0.052779 -3.020363
2011-08-26 05:53:51 51°18.103 2°52.612 22.7502 0.009914 0.052781 -3.020363
2011-08-26 05:53:56 51°18.117 2°52.622 22.7535 0.009914 0.052782 -3.020363
2011-08-26 05:54:01 51°18.131 2°52.634 22.7792 0.009914 0.052784 -3.020363
2011-08-26 05:54:06 51°18.145 2°52.646 22.7798 0.009914 0.052785 -3.020363
2011-08-26 05:54:11 51°18.159 2°52.658 22.7938 0.009914 0.052786 -3.020363
2011-08-26 05:54:16 51°18.172 2°52.672 22.7821 0.009914 0.052786 -3.020363
2011-08-26 05:54:21 51°18.186 2°52.686 22.7997 0.009914 0.052788 -3.020363
2011-08-26 05:54:26 51°18.199 2°52.699 22.8155 0.009914 0.05279 -3.020363
2011-08-26 05:54:31 51°18.212 2°52.713 22.8017 0.009914 0.052791 -3.020363
2011-08-26 05:54:36 51°18.226 2°52.726 22.8076 0.009914 0.052792 -3.020363
2011-08-26 05:54:41 51°18.239 2°52.74 22.788 0.009914 0.052793 -3.020363
2011-08-26 05:54:46 51°18.252 2°52.754 22.772 0.009914 0.052793 -3.020363
2011-08-26 05:54:51 51°18.266 2°52.767 22.8115 0.009914 0.052795 -3.020363
2011-08-26 05:54:56 51°18.279 2°52.781 22.8055 0.009914 0.052796 -3.020363
2011-08-26 05:55:00 51°18.29 2°52.791 22.7724 0.009914 0.052797 -3.020363
2011-08-26 05:55:06 51°18.306 2°52.806 22.8172 0.009914 0.052799 -3.020363
2011-08-26 05:55:11 51°18.32 2°52.819 22.7528 0.009914 0.0528 -3.020363
2011-08-26 05:55:16 51°18.333 2°52.831 22.7563 0.009914 0.0528 -3.020363
2011-08-26 05:55:20 51°18.344 2°52.842 22.7465 0.009914 0.052801 -3.020363
2011-08-26 05:55:26 51°18.36 2°52.858 22.7697 0.009914 0.052803 -3.020363
2011-08-26 05:55:31 51°18.373 2°52.873 22.7867 0.009914 0.052804 -3.020363
2011-08-26 05:55:36 51°18.386 2°52.888 22.8013 0.009914 0.052806 -3.020363
2011-08-26 05:55:41 51°18.398 2°52.903 22.8132 0.009914 0.052807 -3.020363
2011-08-26 05:55:46 51°18.41 2°52.919 22.8054 0.009914 0.052807 -3.020363
2011-08-26 05:55:51 51°18.423 2°52.934 22.8305 0.009914 0.052808 -3.020363
2011-08-26 05:55:56 51°18.435 2°52.95 22.8096 0.009914 0.052809 -3.020363
2011-08-26 05:56:01 51°18.447 2°52.967 22.8181 0.009914 0.052811 -3.020363
2011-08-26 05:56:06 51°18.459 2°52.983 22.8054 0.009914 0.052812 -3.020363
2011-08-26 05:56:11 51°18.471 2°52.998 22.8382 0.009914 0.052814 -3.020363
2011-08-26 05:56:16 51°18.483 2°53.014 22.8193 0.009914 0.052814 -3.020363
2011-08-26 05:56:21 51°18.496 2°53.03 22.7973 0.009914 0.052815 -3.020363
2011-08-26 05:56:26 51°18.508 2°53.045 22.8259 0.009914 0.052817 -3.020363
2011-08-26 05:56:31 51°18.521 2°53.061 22.8181 0.009914 0.052818 -3.020363
2011-08-26 05:56:36 51°18.533 2°53.076 22.8153 0.009914 0.052819 -3.020363
2011-08-26 05:56:41 51°18.545 2°53.091 22.8381 0.009914 0.052821 -3.020363
2011-08-26 05:56:46 51°18.558 2°53.107 22.8135 0.009914 0.052821 -3.020363
2011-08-26 05:56:51 51°18.57 2°53.122 22.7903 0.009914 0.052822 -3.020363
2011-08-26 05:56:56 51°18.583 2°53.138 22.817 0.009914 0.052823 -3.020363
2011-08-26 05:57:00 51°18.593 2°53.15 22.8461 0.009914 0.052824 -3.020363
2011-08-26 05:57:06 51°18.608 2°53.168 22.833 0.009914 0.052826 -3.020363
2011-08-26 05:57:11 51°18.62 2°53.183 22.8018 0.009914 0.052827 -3.020363
2011-08-26 05:57:16 51°18.633 2°53.198 22.8309 0.009914 0.052827 -3.020363
2011-08-26 05:57:20 51°18.643 2°53.21 22.7978 0.009914 0.052828 -3.020363
2011-08-26 05:57:26 51°18.658 2°53.228 22.8388 0.009914 0.05283 -3.020363
2011-08-26 05:57:31 51°18.67 2°53.243 22.8394 0.009914 0.052831 -3.020363
2011-08-26 05:57:36 51°18.683 2°53.258 22.8444 0.009914 0.052832 -3.020363
2011-08-26 05:57:40 51°18.693 2°53.271 22.8581 0.009914 0.052833 -3.020363
2011-08-26 05:57:46 51°18.708 2°53.289 22.868 0.009914 0.052833 -3.020363
2011-08-26 05:57:51 51°18.721 2°53.303 22.8784 0.009914 0.052835 -3.020363
2011-08-26 05:57:56 51°18.734 2°53.316 22.7963 0.009914 0.052836 -3.020363
2011-08-26 05:58:00 51°18.745 2°53.326 22.8499 0.009914 0.052838 -3.020363
2011-08-26 05:58:06 51°18.761 2°53.343 22.8405 0.009914 0.052839 -3.020363
2011-08-26 05:58:11 51°18.775 2°53.355 22.8032 0.009914 0.052841 -3.020363
2011-08-26 05:58:16 51°18.788 2°53.368 22.8445 0.009914 0.052841 -3.020363
2011-08-26 05:58:20 51°18.799 2°53.378 22.8127 0.009914 0.052842 -3.020363
2011-08-26 05:58:26 51°18.815 2°53.393 22.8427 0.009914 0.052843 -3.020363
2011-08-26 05:58:31 51°18.829 2°53.406 22.8383 0.009914 0.052845 -3.020363
2011-08-26 05:58:36 51°18.842 2°53.419 22.8428 0.009914 0.052846 -3.020363
2011-08-26 05:58:40 51°18.853 2°53.43 22.8183 0.009914 0.052848 -3.020363
2011-08-26 05:58:46 51°18.869 2°53.446 22.8018 0.009914 0.052848 -3.020363
2011-08-26 05:58:51 51°18.882 2°53.459 22.7885 0.009914 0.052849 -3.020363
2011-08-26 05:58:56 51°18.896 2°53.473 22.8327 0.009914 0.05285 -3.020363
2011-08-26 05:59:00 51°18.906 2°53.485 22.8297 0.009914 0.052852 -3.020363
2011-08-26 05:59:06 51°18.921 2°53.503 22.8485 0.009914 0.052853 -3.020363
2011-08-26 05:59:11 51°18.934 2°53.518 22.8356 0.009914 0.052854 -3.020363
2011-08-26 05:59:16 51°18.946 2°53.533 22.8389 0.009914 0.052854 -3.020363
2011-08-26 05:59:20 51°18.956 2°53.546 22.8741 0.009914 0.052856 -3.020363
2011-08-26 05:59:26 51°18.971 2°53.564 22.8478 0.009914 0.052857 -3.020363
2011-08-26 05:59:31 51°18.983 2°53.58 22.8498 0.009914 0.052858 -3.020363
2011-08-26 05:59:36 51°18.996 2°53.596 22.8459 0.009914 0.052859 -3.020363
2011-08-26 05:59:40 51°19.005 2°53.609 22.8862 0.009811 0.052379 -3.020363
2011-08-26 05:59:46 51°19.02 2°53.628 22.8362 0.009811 0.052379 -3.020363
2011-08-26 05:59:51 51°19.032 2°53.644 22.8646 0.009914 0.052862 -3.020363
2011-08-26 05:59:56 51°19.044 2°53.66 22.8468 0.009914 0.052863 -3.020363
2011-08-26 06:00:00 51°19.053 2°53.673 22.8875 0.009914 0.052865 -3.020363
2011-08-26 06:00:06 51°19.068 2°53.692 22.8911 0.009914 0.052866 -3.020363
2011-08-26 06:00:11 51°19.08 2°53.708 22.8977 0.009811 0.052385 -3.020363
2011-08-26 06:00:16 51°19.092 2°53.723 22.8981 0.009811 0.052385 -3.020363
2011-08-26 06:00:20 51°19.102 2°53.735 22.8611 0.009811 0.052386 -3.020363
2011-08-26 06:00:26 51°19.118 2°53.753 22.8887 0.009914 0.05287 -3.020363
2011-08-26 06:00:31 51°19.131 2°53.768 22.8882 0.009914 0.052872 -3.020363
2011-08-26 06:00:36 51°19.144 2°53.781 22.8511 0.009811 0.052391 -3.020363
2011-08-26 06:00:40 51°19.155 2°53.792 22.8995 0.009914 0.052875 -3.020363
2011-08-26 06:00:46 51°19.17 2°53.808 22.8304 0.009914 0.052875 -3.020363
2011-08-26 06:00:51 51°19.184 2°53.821 22.8625 0.009811 0.052394 -3.020363
2011-08-26 06:00:56 51°19.197 2°53.835 22.8425 0.009914 0.052878 -3.020363
2011-08-26 06:01:00 51°19.208 2°53.846 22.8733 0.009811 0.052397 -3.020363
2011-08-26 06:01:06 51°19.223 2°53.863 22.8128 0.009811 0.052398 -3.020363
2011-08-26 06:01:11 51°19.236 2°53.877 22.8622 0.009811 0.052399 -3.020363
2011-08-26 06:01:16 51°19.249 2°53.891 22.8596 0.009811 0.052399 -3.020363
2011-08-26 06:01:20 51°19.259 2°53.903 22.8508 0.009811 0.052401 -3.020363
2011-08-26 06:01:26 51°19.274 2°53.922 22.8773 0.009811 0.052402 -3.020363
2011-08-26 06:01:31 51°19.287 2°53.937 22.8847 0.009811 0.052404 -3.020363
2011-08-26 06:01:36 51°19.299 2°53.953 22.8512 0.009811 0.052405 -3.020363
2011-08-26 06:01:40 51°19.308 2°53.966 22.9018 0.009811 0.052407 -3.020363
2011-08-26 06:01:46 51°19.323 2°53.985 22.8975 0.009811 0.052407 -3.020363
2011-08-26 06:01:51 51°19.335 2°54.001 22.8561 0.009811 0.052408 -3.020363
2011-08-26 06:01:56 51°19.347 2°54.017 22.8918 0.009811 0.052409 -3.020363
2011-08-26 06:02:00 51°19.357 2°54.03 22.8805 0.009811 0.052411 -3.020363
2011-08-26 06:02:06 51°19.371 2°54.049 22.9003 0.009811 0.052413 -3.020363
2011-08-26 06:02:11 51°19.383 2°54.065 22.8755 0.009811 0.052414 -3.020363
2011-08-26 06:02:16 51°19.396 2°54.081 22.889 0.009811 0.052414 -3.020363
2011-08-26 06:02:20 51°19.405 2°54.093 22.8844 0.009811 0.052415 -3.020363
2011-08-26 06:02:26 51°19.42 2°54.113 22.8647 0.009811 0.052417 -3.020363
2011-08-26 06:02:31 51°19.432 2°54.128 22.9094 0.009811 0.052418 -3.020363
2011-08-26 06:02:36 51°19.444 2°54.144 22.8888 0.009811 0.052419 -3.020363
2011-08-26 06:02:40 51°19.454 2°54.157 22.8953 0.009811 0.052421 -3.020363
2011-08-26 06:02:46 51°19.469 2°54.176 22.9252 0.009811 0.052421 -3.020363
2011-08-26 06:02:51 51°19.481 2°54.191 22.8828 0.009811 0.052422 -3.020363
2011-08-26 06:02:56 51°19.493 2°54.207 22.9174 0.009811 0.052423 -3.020363
2011-08-26 06:03:00 51°19.503 2°54.219 22.9012 0.009811 0.052425 -3.020363
2011-08-26 06:03:06 51°19.517 2°54.238 22.8783 0.009811 0.052426 -3.020363
2011-08-26 06:03:11 51°19.53 2°54.253 22.9201 0.009811 0.052428 -3.020363
2011-08-26 06:03:16 51°19.542 2°54.268 22.8754 0.009811 0.052428 -3.020363
2011-08-26 06:03:20 51°19.552 2°54.28 22.9091 0.009811 0.052429 -3.020363
2011-08-26 06:03:26 51°19.567 2°54.298 22.9289 0.009811 0.052431 -3.020363
2011-08-26 06:03:31 51°19.58 2°54.312 22.9391 0.009811 0.052432 -3.020363
2011-08-26 06:03:36 51°19.593 2°54.326 22.8753 0.009811 0.052434 -3.020363
2011-08-26 06:03:40 51°19.604 2°54.337 22.8558 0.009811 0.052436 -3.020363
2011-08-26 06:03:46 51°19.62 2°54.353 22.8629 0.009811 0.052436 -3.020363
2011-08-26 06:03:51 51°19.633 2°54.366 22.9035 0.009811 0.052437 -3.020363
2011-08-26 06:03:56 51°19.646 2°54.38 22.9219 0.009811 0.052438 -3.020363
2011-08-26 06:04:00 51°19.657 2°54.391 22.8898 0.009811 0.05244 -3.020363
2011-08-26 06:04:06 51°19.672 2°54.407 22.923 0.009811 0.052442 -3.020363
2011-08-26 06:04:11 51°19.685 2°54.421 22.9187 0.009811 0.052443 -3.020363
2011-08-26 06:04:16 51°19.698 2°54.435 22.9038 0.009811 0.052443 -3.020363
2011-08-26 06:04:20 51°19.708 2°54.446 22.8684 0.009811 0.052445 -3.020363
2011-08-26 06:04:26 51°19.724 2°54.462 22.8898 0.009811 0.052446 -3.020363
2011-08-26 06:04:31 51°19.737 2°54.476 22.869 0.009811 0.052447 -3.020363
2011-08-26 06:04:36 51°19.75 2°54.489 22.8919 0.009811 0.052449 -3.020363
2011-08-26 06:04:40 51°19.761 2°54.501 22.9129 0.009811 0.052451 -3.020363
2011-08-26 06:04:46 51°19.776 2°54.517 22.9053 0.009811 0.052451 -3.020363
2011-08-26 06:04:51 51°19.79 2°54.531 22.9041 0.009811 0.052452 -3.020363
2011-08-26 06:04:56 51°19.803 2°54.544 22.9251 0.009811 0.052453 -3.020363
2011-08-26 06:05:00 51°19.813 2°54.556 22.8885 0.009811 0.052455 -3.020363
2011-08-26 06:05:06 51°19.829 2°54.572 22.9333 0.009811 0.052457 -3.020363
2011-08-26 06:05:11 51°19.841 2°54.587 22.9204 0.009811 0.052459 -3.020363
2011-08-26 06:05:16 51°19.854 2°54.601 22.9093 0.009811 0.052459 -3.020363
2011-08-26 06:05:20 51°19.864 2°54.613 22.9287 0.009811 0.05246 -3.020363
2011-08-26 06:05:26 51°19.88 2°54.63 22.8703 0.009811 0.052461 -3.020363
2011-08-26 06:05:31 51°19.893 2°54.645 22.8938 0.009811 0.052462 -3.020363
2011-08-26 06:05:36 51°19.905 2°54.66 22.8633 0.009811 0.052465 -3.020363
2011-08-26 06:05:40 51°19.915 2°54.672 22.8867 0.009811 0.052466 -3.020363
2011-08-26 06:05:46 51°19.93 2°54.691 22.8665 0.009811 0.052466 -3.020363
2011-08-26 06:05:51 51°19.942 2°54.707 22.9221 0.009811 0.052467 -3.020363
2011-08-26 06:05:56 51°19.954 2°54.724 22.8745 0.009811 0.052469 -3.020363
2011-08-26 06:06:00 51°19.964 2°54.736 22.9008 0.009811 0.05247 -3.020363
2011-08-26 06:06:06 51°19.978 2°54.757 22.9166 0.009811 0.052471 -3.020363
2011-08-26 06:06:11 51°19.99 2°54.773 22.9456 0.009811 0.052473 -3.020363
2011-08-26 06:06:16 51°20.001 2°54.79 22.9221 0.009811 0.052473 -3.020363
2011-08-26 06:06:20 51°20.012 2°54.802 22.957 0.009811 0.052474 -3.020363
2011-08-26 06:06:26 51°20.026 2°54.821 22.919 0.009811 0.052476 -3.020363
2011-08-26 06:06:31 51°20.039 2°54.836 22.924 0.009811 0.052478 -3.020363
2011-08-26 06:06:36 51°20.051 2°54.852 22.8746 0.009811 0.052479 -3.020363
2011-08-26 06:06:40 51°20.061 2°54.865 22.9134 0.009811 0.052481 -3.020363
2011-08-26 06:06:46 51°20.075 2°54.884 22.8759 0.009811 0.052481 -3.020363
2011-08-26 06:06:51 51°20.088 2°54.899 22.9228 0.009811 0.052482 -3.020363
2011-08-26 06:06:56 51°20.1 2°54.916 22.8839 0.009811 0.052484 -3.020363
2011-08-26 06:07:00 51°20.109 2°54.929 22.9081 0.009811 0.052485 -3.020363
2011-08-26 06:07:06 51°20.124 2°54.949 22.908 0.009811 0.052487 -3.020363
2011-08-26 06:07:11 51°20.136 2°54.964 22.9215 0.009811 0.052488 -3.020363
2011-08-26 06:07:16 51°20.148 2°54.981 22.9176 0.009811 0.052488 -3.020363
2011-08-26 06:07:20 51°20.158 2°54.993 22.9264 0.009811 0.05249 -3.020363
2011-08-26 06:07:26 51°20.173 2°55.013 22.9157 0.009811 0.052491 -3.020363
2011-08-26 06:07:31 51°20.185 2°55.029 22.9018 0.009811 0.052493 -3.020363
2011-08-26 06:07:36 51°20.197 2°55.045 22.92 0.009811 0.052494 -3.020363
2011-08-26 06:07:40 51°20.208 2°55.057 22.9165 0.009811 0.052496 -3.020363
2011-08-26 06:07:46 51°20.223 2°55.076 22.9397 0.009811 0.052496 -3.020363
2011-08-26 06:07:51 51°20.235 2°55.09 22.9122 0.009811 0.052497 -3.020363
2011-08-26 06:07:56 51°20.248 2°55.105 22.9315 0.009811 0.052499 -3.020363
2011-08-26 06:08:00 51°20.259 2°55.116 22.9091 0.009811 0.052501 -3.020363
2011-08-26 06:08:06 51°20.275 2°55.133 22.9407 0.009811 0.052502 -3.020363
2011-08-26 06:08:11 51°20.288 2°55.146 22.8844 0.009811 0.052504 -3.020363
2011-08-26 06:08:16 51°20.301 2°55.161 22.9283 0.009811 0.052504 -3.020363
2011-08-26 06:08:20 51°20.312 2°55.173 22.9232 0.009811 0.052506 -3.020363
2011-08-26 06:08:26 51°20.327 2°55.19 22.9382 0.009811 0.052507 -3.020363
2011-08-26 06:08:31 51°20.34 2°55.205 22.9282 0.009811 0.052509 -3.020363
2011-08-26 06:08:36 51°20.353 2°55.22 22.8981 0.009811 0.052511 -3.020363
2011-08-26 06:08:40 51°20.363 2°55.233 22.9059 0.009811 0.052512 -3.020363
2011-08-26 06:08:46 51°20.378 2°55.251 22.9121 0.009811 0.052512 -3.020363
2011-08-26 06:08:51 51°20.39 2°55.267 22.8985 0.009811 0.052514 -3.020363
2011-08-26 06:08:56 51°20.402 2°55.283 22.9401 0.009811 0.052516 -3.020363
2011-08-26 06:09:00 51°20.412 2°55.296 22.9311 0.009811 0.052517 -3.020363
2011-08-26 06:09:06 51°20.427 2°55.314 22.9587 0.009811 0.052519 -3.020363
2011-08-26 06:09:11 51°20.439 2°55.331 22.9228 0.009811 0.052521 -3.020363
2011-08-26 06:09:16 51°20.452 2°55.346 22.9484 0.009811 0.052521 -3.020363
2011-08-26 06:09:20 51°20.463 2°55.357 22.9533 0.009811 0.052523 -3.020363
2011-08-26 06:09:26 51°20.478 2°55.373 22.9598 0.009811 0.052524 -3.020363
2011-08-26 06:09:31 51°20.492 2°55.387 22.9207 0.009811 0.052526 -3.020363
2011-08-26 06:09:36 51°20.505 2°55.4 22.9276 0.009811 0.052528 -3.020363
2011-08-26 06:09:40 51°20.516 2°55.411 22.9522 0.009811 0.052529 -3.020363
2011-08-26 06:09:46 51°20.532 2°55.427 22.9196 0.009811 0.052529 -3.020363
2011-08-26 06:09:51 51°20.545 2°55.441 22.9248 0.009811 0.05253 -3.020363
2011-08-26 06:09:56 51°20.557 2°55.455 22.9418 0.009811 0.052532 -3.020363
2011-08-26 06:10:00 51°20.568 2°55.467 22.9298 0.009811 0.052534 -3.020363
2011-08-26 06:10:06 51°20.583 2°55.484 22.9659 0.009811 0.052535 -3.020363
2011-08-26 06:10:11 51°20.595 2°55.5 22.9202 0.009811 0.052537 -3.020363
2011-08-26 06:10:16 51°20.608 2°55.515 22.9322 0.009811 0.052537 -3.020363
2011-08-26 06:10:20 51°20.618 2°55.528 22.936 0.009811 0.052539 -3.020363
2011-08-26 06:10:26 51°20.632 2°55.547 22.9333 0.009811 0.05254 -3.020363
2011-08-26 06:10:31 51°20.644 2°55.563 22.9534 0.009811 0.052542 -3.020363
2011-08-26 06:10:36 51°20.657 2°55.579 22.9131 0.009811 0.052543 -3.020363
2011-08-26 06:10:40 51°20.667 2°55.591 22.9565 0.009811 0.052545 -3.020363
2011-08-26 06:10:46 51°20.681 2°55.61 22.927 0.009811 0.052545 -3.020363
2011-08-26 06:10:51 51°20.694 2°55.626 22.9526 0.009811 0.052547 -3.020363
2011-08-26 06:10:56 51°20.706 2°55.642 22.9696 0.009811 0.052548 -3.020363
2011-08-26 06:11:00 51°20.715 2°55.654 22.9441 0.009811 0.05255 -3.020363
2011-08-26 06:11:06 51°20.73 2°55.673 22.9842 0.009811 0.052551 -3.020363
2011-08-26 06:11:11 51°20.742 2°55.689 22.9465 0.009811 0.052553 -3.020363
2011-08-26 06:11:16 51°20.754 2°55.704 22.9872 0.009811 0.052553 -3.020363
2011-08-26 06:11:20 51°20.764 2°55.717 22.9782 0.009811 0.052554 -3.020363
2011-08-26 06:11:26 51°20.779 2°55.735 22.9827 0.009811 0.052556 -3.020363
2011-08-26 06:11:31 51°20.792 2°55.75 22.9565 0.009811 0.052558 -3.020363
2011-08-26 06:11:36 51°20.805 2°55.765 22.9765 0.009811 0.052559 -3.020363
2011-08-26 06:11:40 51°20.815 2°55.776 22.9454 0.009811 0.052561 -3.020363
2011-08-26 06:11:46 51°20.832 2°55.791 22.9667 0.009811 0.052561 -3.020363
2011-08-26 06:11:50 51°20.842 2°55.802 22.9582 0.009811 0.052563 -3.020363
2011-08-26 06:11:56 51°20.859 2°55.817 22.9392 0.009811 0.052564 -3.020363
2011-08-26 06:12:00 51°20.869 2°55.828 22.9455 0.009811 0.052566 -3.020363
2011-08-26 06:12:06 51°20.885 2°55.844 22.911 0.009811 0.052567 -3.020363
2011-08-26 06:12:11 51°20.899 2°55.857 22.9598 0.009811 0.052569 -3.020363
2011-08-26 06:12:16 51°20.912 2°55.871 22.9595 0.009811 0.052569 -3.020363
2011-08-26 06:12:20 51°20.922 2°55.882 22.9652 0.009811 0.05257 -3.020363
2011-08-26 06:12:26 51°20.938 2°55.9 22.951 0.009811 0.052572 -3.020363
2011-08-26 06:12:31 51°20.951 2°55.914 22.9753 0.009811 0.052574 -3.020363
2011-08-26 06:12:36 51°20.963 2°55.929 22.9786 0.009811 0.052575 -3.020363
2011-08-26 06:12:41 51°20.976 2°55.944 22.9809 0.009811 0.052577 -3.020363
2011-08-26 06:12:46 51°20.988 2°55.96 22.9691 0.009811 0.052577 -3.020363
2011-08-26 06:12:51 51°21 2°55.975 22.9797 0.009811 0.052578 -3.020363
2011-08-26 06:12:56 51°21.012 2°55.991 22.9904 0.009811 0.05258 -3.020363
2011-08-26 06:13:00 51°21.022 2°56.003 22.9483 0.009811 0.052581 -3.020363
2011-08-26 06:13:06 51°21.037 2°56.021 23.0021 0.009811 0.052582 -3.020363
2011-08-26 06:13:11 51°21.049 2°56.037 22.964 0.009811 0.052584 -3.020363
2011-08-26 06:13:16 51°21.062 2°56.052 22.9822 0.009811 0.052584 -3.020363
2011-08-26 06:13:20 51°21.071 2°56.064 22.9948 0.009811 0.052586 -3.020363
2011-08-26 06:13:26 51°21.086 2°56.082 23.0036 0.009811 0.052587 -3.020363
2011-08-26 06:13:31 51°21.099 2°56.097 22.9979 0.009811 0.052589 -3.020363
2011-08-26 06:13:36 51°21.112 2°56.11 23.013 0.009811 0.05259 -3.020363
2011-08-26 06:13:40 51°21.122 2°56.122 22.9632 0.009811 0.052591 -3.020363
2011-08-26 06:13:46 51°21.138 2°56.138 22.9762 0.009811 0.052591 -3.020363
2011-08-26 06:13:51 51°21.152 2°56.151 22.9937 0.009811 0.052593 -3.020363
2011-08-26 06:13:56 51°21.165 2°56.165 22.9942 0.009811 0.052595 -3.020363
2011-08-26 06:14:00 51°21.175 2°56.175 23.0147 0.009811 0.052596 -3.020363
2011-08-26 06:14:06 51°21.191 2°56.191 22.9825 0.009811 0.052598 -3.020363
2011-08-26 06:14:11 51°21.205 2°56.204 22.9928 0.009811 0.052599 -3.020363
2011-08-26 06:14:16 51°21.218 2°56.218 22.9797 0.009811 0.052599 -3.020363
2011-08-26 06:14:20 51°21.228 2°56.228 22.9802 0.009811 0.052602 -3.020363
2011-08-26 06:14:26 51°21.244 2°56.245 22.9736 0.009811 0.052603 -3.020363
2011-08-26 06:14:31 51°21.256 2°56.26 22.9806 0.009811 0.052604 -3.020363
2011-08-26 06:14:36 51°21.269 2°56.275 22.9554 0.009811 0.052606 -3.020363
2011-08-26 06:14:41 51°21.281 2°56.29 22.9989 0.009811 0.052608 -3.020363
2011-08-26 06:14:46 51°21.293 2°56.306 22.9978 0.009811 0.052608 -3.020363
2011-08-26 06:14:51 51°21.305 2°56.321 22.973 0.009811 0.052609 -3.020363
2011-08-26 06:14:56 51°21.317 2°56.337 23.0168 0.009811 0.052611 -3.020363
2011-08-26 06:15:00 51°21.326 2°56.35 22.9951 0.009811 0.052612 -3.020363
2011-08-26 06:15:06 51°21.34 2°56.369 23.0312 0.009811 0.052613 -3.020363
2011-08-26 06:15:11 51°21.352 2°56.385 23.0103 0.009811 0.052615 -3.020363
2011-08-26 06:15:16 51°21.364 2°56.401 23.0375 0.009811 0.052615 -3.020363
2011-08-26 06:15:20 51°21.373 2°56.414 22.9752 0.009811 0.052617 -3.020363
2011-08-26 06:15:26 51°21.388 2°56.433 23.054 0.009811 0.052619 -3.020363
2011-08-26 06:15:31 51°21.4 2°56.449 22.9936 0.009811 0.05262 -3.020363
2011-08-26 06:15:36 51°21.412 2°56.464 23.0437 0.009811 0.052621 -3.020363
2011-08-26 06:15:40 51°21.422 2°56.476 23.0433 0.009811 0.052623 -3.020363
2011-08-26 06:15:46 51°21.437 2°56.493 23.0073 0.009811 0.052623 -3.020363
2011-08-26 06:15:51 51°21.45 2°56.508 22.9822 0.009811 0.052625 -3.020363
2011-08-26 06:15:56 51°21.462 2°56.522 23.022 0.009811 0.052627 -3.020363
2011-08-26 06:16:00 51°21.473 2°56.533 22.9943 0.009811 0.052628 -3.020363
2011-08-26 06:16:06 51°21.488 2°56.55 22.9985 0.009811 0.05263 -3.020363
2011-08-26 06:16:11 51°21.501 2°56.565 23.0027 0.009811 0.052631 -3.020363
2011-08-26 06:16:16 51°21.513 2°56.579 23.0055 0.009811 0.052631 -3.020363
2011-08-26 06:16:21 51°21.525 2°56.594 23.0347 0.009811 0.052633 -3.020363
2011-08-26 06:16:26 51°21.538 2°56.609 22.9744 0.009811 0.052634 -3.020363
2011-08-26 06:16:31 51°21.55 2°56.624 23.0431 0.009811 0.052636 -3.020363
2011-08-26 06:16:36 51°21.562 2°56.64 23.0124 0.009811 0.052637 -3.020363
2011-08-26 06:16:41 51°21.575 2°56.656 23.0905 0.009811 0.052639 -3.020363
2011-08-26 06:16:46 51°21.586 2°56.672 23.0177 0.009811 0.052639 -3.020363
2011-08-26 06:16:51 51°21.598 2°56.687 23.0318 0.009811 0.052641 -3.020363
2011-08-26 06:16:56 51°21.61 2°56.703 23.0416 0.009811 0.052642 -3.020363
2011-08-26 06:17:00 51°21.62 2°56.715 23.0257 0.009811 0.052644 -3.020363
2011-08-26 06:17:06 51°21.635 2°56.734 23.0464 0.009811 0.052646 -3.020363
2011-08-26 06:17:11 51°21.647 2°56.75 23.0012 0.009811 0.052648 -3.020363
2011-08-26 06:17:16 51°21.659 2°56.765 23.0413 0.009811 0.052648 -3.020363
2011-08-26 06:17:21 51°21.671 2°56.781 23.0522 0.009811 0.052649 -3.020363
2011-08-26 06:17:26 51°21.684 2°56.796 23.0145 0.009811 0.05265 -3.020363
2011-08-26 06:17:31 51°21.696 2°56.811 23.0629 0.009811 0.052652 -3.020363
2011-08-26 06:17:36 51°21.708 2°56.826 23.009 0.009811 0.052653 -3.020363
2011-08-26 06:17:40 51°21.719 2°56.837 23.04 0.009811 0.052655 -3.020363
2011-08-26 06:17:46 51°21.734 2°56.854 23.0072 0.009811 0.052655 -3.020363
2011-08-26 06:17:51 51°21.747 2°56.867 23.0489 0.009811 0.052657 -3.020363
2011-08-26 06:17:56 51°21.76 2°56.882 23.023 0.009811 0.052658 -3.020363
2011-08-26 06:18:01 51°21.773 2°56.895 23.0164 0.009811 0.052659 -3.020363
2011-08-26 06:18:06 51°21.786 2°56.91 23.0271 0.009811 0.052661 -3.020363
2011-08-26 06:18:11 51°21.799 2°56.923 23.016 0.009811 0.052662 -3.020363
2011-08-26 06:18:16 51°21.811 2°56.938 23.0749 0.009811 0.052662 -3.020363
2011-08-26 06:18:20 51°21.821 2°56.95 23.0293 0.009811 0.052664 -3.020363
2011-08-26 06:18:26 51°21.836 2°56.968 23.0573 0.009811 0.052665 -3.020363
2011-08-26 06:18:31 51°21.848 2°56.984 23.0245 0.009811 0.052667 -3.020363
2011-08-26 06:18:36 51°21.861 2°56.999 23.0676 0.009811 0.052669 -3.020363
2011-08-26 06:18:41 51°21.872 2°57.015 23.0453 0.009811 0.05267 -3.020363
2011-08-26 06:18:46 51°21.885 2°57.03 23.0362 0.009811 0.05267 -3.020363
2011-08-26 06:18:51 51°21.897 2°57.046 23.0954 0.009811 0.052671 -3.020363
2011-08-26 06:18:56 51°21.908 2°57.061 23.0278 0.009811 0.052673 -3.020363
2011-08-26 06:19:00 51°21.918 2°57.073 23.0809 0.009811 0.052675 -3.020363
2011-08-26 06:19:06 51°21.933 2°57.091 23.0439 0.009811 0.052676 -3.020363
2011-08-26 06:19:11 51°21.946 2°57.106 23.0551 0.009811 0.052678 -3.020363
2011-08-26 06:19:16 51°21.958 2°57.12 23.0566 0.009811 0.052678 -3.020363
2011-08-26 06:19:20 51°21.969 2°57.132 23.0675 0.009811 0.052679 -3.020363
2011-08-26 06:19:26 51°21.984 2°57.149 23.0315 0.009811 0.052681 -3.020363
2011-08-26 06:19:31 51°21.997 2°57.164 23.0589 0.009811 0.052683 -3.020363
2011-08-26 06:19:36 51°22.009 2°57.178 23.0317 0.009811 0.052684 -3.020363
2011-08-26 06:19:40 51°22.02 2°57.19 23.0711 0.009811 0.052686 -3.020363
2011-08-26 06:19:46 51°22.035 2°57.208 23.0272 0.009811 0.052686 -3.020363
2011-08-26 06:19:51 51°22.047 2°57.222 23.0932 0.009811 0.052687 -3.020363
2011-08-26 06:19:56 51°22.059 2°57.238 23.0383 0.009811 0.052689 -3.020363
2011-08-26 06:20:00 51°22.07 2°57.249 23.0613 0.009811 0.05269 -3.020363
2011-08-26 06:20:06 51°22.084 2°57.268 23.0522 0.009811 0.052692 -3.020363
2011-08-26 06:20:11 51°22.097 2°57.282 23.0547 0.009811 0.052694 -3.020363
2011-08-26 06:20:16 51°22.109 2°57.298 23.0829 0.009811 0.052694 -3.020363
2011-08-26 06:20:20 51°22.119 2°57.311 23.054 0.009811 0.052695 -3.020363
2011-08-26 06:20:26 51°22.133 2°57.33 23.0943 0.009811 0.052697 -3.020363
2011-08-26 06:20:31 51°22.145 2°57.346 23.0333 0.009811 0.052699 -3.020363
2011-08-26 06:20:36 51°22.157 2°57.361 23.0723 0.009811 0.0527 -3.020363
2011-08-26 06:20:41 51°22.168 2°57.378 23.0732 0.009811 0.052702 -3.020363
2011-08-26 06:20:46 51°22.18 2°57.393 23.0811 0.009811 0.052702 -3.020363
2011-08-26 06:20:51 51°22.192 2°57.41 23.0883 0.009811 0.052704 -3.020363
2011-08-26 06:20:56 51°22.204 2°57.425 23.0735 0.009811 0.052706 -3.020363
2011-08-26 06:21:00 51°22.213 2°57.438 23.0567 0.009811 0.052707 -3.020363
2011-08-26 06:21:06 51°22.228 2°57.457 23.0937 0.009811 0.052709 -3.020363
2011-08-26 06:21:11 51°22.24 2°57.473 23.0895 0.009811 0.052711 -3.020363
2011-08-26 06:21:16 51°22.252 2°57.488 23.0643 0.009811 0.052711 -3.020363
2011-08-26 06:21:21 51°22.264 2°57.503 23.1104 0.009811 0.052713 -3.020363
2011-08-26 06:21:26 51°22.277 2°57.518 23.0693 0.009811 0.052715 -3.020363
2011-08-26 06:21:31 51°22.29 2°57.531 23.0809 0.009811 0.052716 -3.020363
2011-08-26 06:21:36 51°22.302 2°57.546 23.1033 0.009811 0.052718 -3.020363
2011-08-26 06:21:40 51°22.313 2°57.557 23.0374 0.009811 0.05272 -3.020363
2011-08-26 06:21:46 51°22.328 2°57.573 23.1205 0.009811 0.05272 -3.020363
2011-08-26 06:21:51 51°22.341 2°57.588 23.0661 0.009811 0.052722 -3.020363
2011-08-26 06:21:56 51°22.354 2°57.601 23.1052 0.009811 0.052724 -3.020363
2011-08-26 06:22:01 51°22.367 2°57.616 23.1159 0.009811 0.052726 -3.020363
2011-08-26 06:22:06 51°22.38 2°57.63 23.064 0.009811 0.052727 -3.020363
2011-08-26 06:22:11 51°22.392 2°57.644 23.129 0.009811 0.05273 -3.020363
2011-08-26 06:22:16 51°22.405 2°57.658 23.0544 0.009811 0.05273 -3.020363
2011-08-26 06:22:20 51°22.416 2°57.669 23.0977 0.009811 0.052731 -3.020363
2011-08-26 06:22:26 51°22.431 2°57.686 23.0882 0.009811 0.052733 -3.020363
2011-08-26 06:22:31 51°22.444 2°57.7 23.0584 0.009811 0.052735 -3.020363
2011-08-26 06:22:36 51°22.456 2°57.715 23.1129 0.009811 0.052736 -3.020363
2011-08-26 06:22:40 51°22.467 2°57.726 23.0607 0.009811 0.052738 -3.020363
2011-08-26 06:22:46 51°22.482 2°57.744 23.1097 0.009811 0.052738 -3.020363
2011-08-26 06:22:51 51°22.494 2°57.759 23.0725 0.009811 0.05274 -3.020363
2011-08-26 06:22:56 51°22.506 2°57.774 23.0631 0.009811 0.052742 -3.020363
2011-08-26 06:23:00 51°22.516 2°57.786 23.097 0.009811 0.052744 -3.020363
2011-08-26 06:23:06 51°22.531 2°57.805 23.0858 0.009811 0.052746 -3.020363
2011-08-26 06:23:11 51°22.543 2°57.821 23.1065 0.009811 0.052747 -3.020363
2011-08-26 06:23:16 51°22.554 2°57.838 23.1027 0.009811 0.052747 -3.020363
2011-08-26 06:23:20 51°22.564 2°57.85 23.1149 0.009811 0.052749 -3.020363
2011-08-26 06:23:26 51°22.578 2°57.87 23.0971 0.009811 0.052751 -3.020363
2011-08-26 06:23:31 51°22.59 2°57.886 23.1136 0.009811 0.052752 -3.020363
2011-08-26 06:23:36 51°22.602 2°57.902 23.136 0.009811 0.052754 -3.020363
2011-08-26 06:23:41 51°22.613 2°57.919 23.1251 0.009811 0.052755 -3.020363
2011-08-26 06:23:46 51°22.625 2°57.935 23.095 0.009811 0.052755 -3.020363
2011-08-26 06:23:51 51°22.637 2°57.95 23.1235 0.009811 0.052758 -3.020363
2011-08-26 06:23:56 51°22.65 2°57.966 23.084 0.009811 0.052759 -3.020363
2011-08-26 06:24:00 51°22.659 2°57.978 23.1399 0.009811 0.052761 -3.020363
2011-08-26 06:24:06 51°22.674 2°57.997 23.1402 0.009811 0.052763 -3.020363
2011-08-26 06:24:11 51°22.686 2°58.012 23.0907 0.009811 0.052765 -3.020363
2011-08-26 06:24:16 51°22.699 2°58.026 23.1542 0.009811 0.052765 -3.020363
2011-08-26 06:24:20 51°22.709 2°58.038 23.12 0.009811 0.052766 -3.020363
2011-08-26 06:24:26 51°22.725 2°58.055 23.0864 0.009811 0.052768 -3.020363
2011-08-26 06:24:31 51°22.737 2°58.07 23.1528 0.009708 0.052282 -3.020363
2011-08-26 06:24:36 51°22.75 2°58.083 23.082 0.009708 0.052283 -3.020363
2011-08-26 06:24:40 51°22.761 2°58.094 23.1784 0.009708 0.052285 -3.020363
2011-08-26 06:24:46 51°22.776 2°58.112 23.0886 0.009708 0.052285 -3.020363
2011-08-26 06:24:51 51°22.789 2°58.125 23.1118 0.009811 0.052774 -3.020363
2011-08-26 06:24:56 51°22.802 2°58.14 23.1376 0.009708 0.052288 -3.020363
2011-08-26 06:25:01 51°22.815 2°58.155 23.1304 0.009708 0.05229 -3.020363
2011-08-26 06:25:06 51°22.827 2°58.169 23.1047 0.009708 0.052292 -3.020363
2011-08-26 06:25:11 51°22.84 2°58.184 23.134 0.009708 0.052293 -3.020363
2011-08-26 06:25:16 51°22.852 2°58.199 23.1343 0.009708 0.052293 -3.020363
2011-08-26 06:25:20 51°22.862 2°58.211 23.1099 0.009708 0.052295 -3.020363
2011-08-26 06:25:26 51°22.877 2°58.229 23.1197 0.009708 0.052297 -3.020363
2011-08-26 06:25:31 51°22.889 2°58.245 23.1046 0.009708 0.052298 -3.020363
2011-08-26 06:25:36 51°22.901 2°58.26 23.1452 0.009708 0.0523 -3.020363
2011-08-26 06:25:41 51°22.913 2°58.276 23.1193 0.009708 0.052302 -3.020363
2011-08-26 06:25:46 51°22.925 2°58.292 23.1237 0.009708 0.052302 -3.020363
2011-08-26 06:25:51 51°22.937 2°58.309 23.1407 0.009708 0.052304 -3.020363
2011-08-26 06:25:56 51°22.949 2°58.325 23.1115 0.009708 0.052305 -3.020363
2011-08-26 06:26:01 51°22.961 2°58.341 23.1588 0.009708 0.052308 -3.020363
2011-08-26 06:26:06 51°22.972 2°58.357 23.119 0.009708 0.052309 -3.020363
2011-08-26 06:26:11 51°22.984 2°58.373 23.1518 0.009708 0.052311 -3.020363
2011-08-26 06:26:16 51°22.996 2°58.39 23.1657 0.009708 0.052311 -3.020363
2011-08-26 06:26:21 51°23.007 2°58.406 23.1638 0.009708 0.052313 -3.020363
2011-08-26 06:26:26 51°23.019 2°58.422 23.1493 0.009708 0.052314 -3.020363
2011-08-26 06:26:31 51°23.032 2°58.438 23.1574 0.009708 0.052316 -3.020363
2011-08-26 06:26:36 51°23.044 2°58.454 23.1619 0.009708 0.052318 -3.020363
2011-08-26 06:26:40 51°23.054 2°58.466 23.1895 0.009708 0.052319 -3.020363
2011-08-26 06:26:46 51°23.068 2°58.484 23.1424 0.009708 0.052319 -3.020363
2011-08-26 06:26:51 51°23.081 2°58.498 23.17 0.009708 0.052322 -3.020363
2011-08-26 06:26:56 51°23.094 2°58.512 23.1666 0.009708 0.052323 -3.020363
2011-08-26 06:27:00 51°23.104 2°58.523 23.1255 0.009708 0.052325 -3.020363
2011-08-26 06:27:06 51°23.12 2°58.54 23.1366 0.009708 0.052327 -3.020363
2011-08-26 06:27:11 51°23.133 2°58.554 23.176 0.009708 0.052328 -3.020363
2011-08-26 06:27:16 51°23.145 2°58.568 23.1637 0.009708 0.052328 -3.020363
2011-08-26 06:27:20 51°23.156 2°58.579 23.1588 0.009708 0.05233 -3.020363
2011-08-26 06:27:26 51°23.171 2°58.596 23.1808 0.009708 0.052332 -3.020363
2011-08-26 06:27:31 51°23.184 2°58.611 23.1253 0.009708 0.052334 -3.020363
2011-08-26 06:27:36 51°23.197 2°58.625 23.1494 0.009708 0.052335 -3.020363
2011-08-26 06:27:41 51°23.209 2°58.64 23.1406 0.009708 0.052337 -3.020363
2011-08-26 06:27:46 51°23.222 2°58.655 23.1374 0.009708 0.052337 -3.020363
2011-08-26 06:27:51 51°23.234 2°58.67 23.1651 0.009708 0.052339 -3.020363
2011-08-26 06:27:56 51°23.246 2°58.686 23.1837 0.009708 0.05234 -3.020363
2011-08-26 06:28:00 51°23.256 2°58.699 23.1692 0.009708 0.052342 -3.020363
2011-08-26 06:28:06 51°23.271 2°58.718 23.1519 0.009708 0.052344 -3.020363
2011-08-26 06:28:11 51°23.283 2°58.734 23.1796 0.009708 0.052345 -3.020363
2011-08-26 06:28:16 51°23.294 2°58.751 23.1561 0.009708 0.052345 -3.020363
2011-08-26 06:28:21 51°23.307 2°58.767 23.1626 0.009708 0.052347 -3.020363
2011-08-26 06:28:26 51°23.318 2°58.784 23.1896 0.009708 0.052349 -3.020363
2011-08-26 06:28:31 51°23.33 2°58.8 23.1652 0.009708 0.05235 -3.020363
2011-08-26 06:28:36 51°23.342 2°58.817 23.2056 0.009708 0.052352 -3.020363
2011-08-26 06:28:40 51°23.352 2°58.829 23.1764 0.009708 0.052353 -3.020363
2011-08-26 06:28:46 51°23.366 2°58.848 23.1974 0.009708 0.052353 -3.020363
2011-08-26 06:28:51 51°23.379 2°58.864 23.1676 0.009708 0.052355 -3.020363
2011-08-26 06:28:56 51°23.391 2°58.879 23.1973 0.009708 0.052356 -3.020363
2011-08-26 06:29:01 51°23.403 2°58.895 23.1709 0.009708 0.052358 -3.020363
2011-08-26 06:29:06 51°23.416 2°58.909 23.1874 0.009708 0.05236 -3.020363
2011-08-26 06:29:11 51°23.429 2°58.924 23.177 0.009708 0.052361 -3.020363
2011-08-26 06:29:16 51°23.442 2°58.938 23.1707 0.009708 0.052361 -3.020363
2011-08-26 06:29:20 51°23.452 2°58.949 23.186 0.009708 0.052363 -3.020363
2011-08-26 06:29:26 51°23.467 2°58.967 23.1681 0.009708 0.052364 -3.020363
2011-08-26 06:29:31 51°23.48 2°58.981 23.1921 0.009708 0.052366 -3.020363
2011-08-26 06:29:36 51°23.493 2°58.996 23.1792 0.009708 0.052368 -3.020363
2011-08-26 06:29:41 51°23.505 2°59.01 23.2032 0.009708 0.052369 -3.020363
2011-08-26 06:29:46 51°23.518 2°59.025 23.1841 0.009708 0.052369 -3.020363
2011-08-26 06:29:51 51°23.53 2°59.04 23.2021 0.009708 0.05237 -3.020363
2011-08-26 06:29:56 51°23.543 2°59.055 23.1904 0.009708 0.052373 -3.020363
2011-08-26 06:30:00 51°23.553 2°59.067 23.1711 0.009708 0.052374 -3.020363
2011-08-26 06:30:06 51°23.568 2°59.084 23.2194 0.009708 0.052376 -3.020363
2011-08-26 06:30:11 51°23.58 2°59.099 23.2016 0.009708 0.052377 -3.020363
2011-08-26 06:30:16 51°23.593 2°59.113 23.1949 0.009708 0.052377 -3.020363
2011-08-26 06:30:21 51°23.606 2°59.127 23.1887 0.009708 0.052378 -3.020363
2011-08-26 06:30:26 51°23.619 2°59.141 23.1633 0.009708 0.05238 -3.020363
2011-08-26 06:30:31 51°23.631 2°59.155 23.1779 0.009708 0.052382 -3.020363
2011-08-26 06:30:36 51°23.644 2°59.17 23.1917 0.009708 0.052384 -3.020363
2011-08-26 06:30:41 51°23.656 2°59.185 23.2124 0.009708 0.052385 -3.020363
2011-08-26 06:30:46 51°23.668 2°59.201 23.1867 0.009708 0.052385 -3.020363
2011-08-26 06:30:51 51°23.681 2°59.216 23.2042 0.009708 0.052386 -3.020363
2011-08-26 06:30:56 51°23.692 2°59.232 23.2058 0.009708 0.052388 -3.020363
2011-08-26 06:31:00 51°23.702 2°59.245 23.2404 0.009708 0.052389 -3.020363
2011-08-26 06:31:06 51°23.716 2°59.265 23.2218 0.009708 0.052391 -3.020363
2011-08-26 06:31:11 51°23.727 2°59.281 23.2238 0.009708 0.052392 -3.020363
2011-08-26 06:31:16 51°23.739 2°59.298 23.2399 0.009708 0.052392 -3.020363
2011-08-26 06:31:20 51°23.748 2°59.311 23.1938 0.009708 0.052394 -3.020363
2011-08-26 06:31:26 51°23.763 2°59.331 23.2173 0.009708 0.052396 -3.020363
2011-08-26 06:31:31 51°23.775 2°59.348 23.2338 0.009708 0.052397 -3.020363
2011-08-26 06:31:36 51°23.787 2°59.364 23.2317 0.009708 0.052399 -3.020363
2011-08-26 06:31:40 51°23.796 2°59.378 23.2397 0.009708 0.0524 -3.020363
2011-08-26 06:31:46 51°23.811 2°59.397 23.2368 0.009708 0.0524 -3.020363
2011-08-26 06:31:51 51°23.823 2°59.414 23.2392 0.009708 0.052402 -3.020363
2011-08-26 06:31:56 51°23.835 2°59.429 23.2394 0.009708 0.052404 -3.020363
2011-08-26 06:32:00 51°23.845 2°59.442 23.2435 0.009708 0.052405 -3.020363
2011-08-26 06:32:06 51°23.86 2°59.46 23.2139 0.009708 0.052407 -3.020363
2011-08-26 06:32:11 51°23.872 2°59.475 23.2333 0.009708 0.052409 -3.020363
2011-08-26 06:32:16 51°23.885 2°59.49 23.1923 0.009708 0.052409 -3.020363
2011-08-26 06:32:21 51°23.898 2°59.505 23.2426 0.009708 0.05241 -3.020363
2011-08-26 06:32:26 51°23.911 2°59.52 23.2182 0.009708 0.052412 -3.020363
2011-08-26 06:32:31 51°23.923 2°59.535 23.2548 0.009708 0.052414 -3.020363
2011-08-26 06:32:36 51°23.936 2°59.55 23.2358 0.009708 0.052415 -3.020363
2011-08-26 06:32:41 51°23.949 2°59.565 23.2252 0.009708 0.052417 -3.020363
2011-08-26 06:32:46 51°23.962 2°59.58 23.2278 0.009708 0.052417 -3.020363
2011-08-26 06:32:51 51°23.974 2°59.595 23.2386 0.009708 0.052419 -3.020363
2011-08-26 06:32:56 51°23.987 2°59.611 23.2126 0.009708 0.05242 -3.020363
2011-08-26 06:33:00 51°23.997 2°59.623 23.2118 0.009708 0.052422 -3.020363
2011-08-26 06:33:06 51°24.012 2°59.642 23.1607 0.009708 0.052423 -3.020363
2011-08-26 06:33:11 51°24.024 2°59.659 23.2314 0.009708 0.052425 -3.020363
2011-08-26 06:33:16 51°24.035 2°59.676 23.2025 0.009708 0.052425 -3.020363
2011-08-26 06:33:20 51°24.045 2°59.69 23.2397 0.009708 0.052426 -3.020363
2011-08-26 06:33:26 51°24.058 2°59.711 23.2323 0.009708 0.052428 -3.020363
2011-08-26 06:33:31 51°24.07 2°59.729 23.2186 0.009708 0.05243 -3.020363
2011-08-26 06:33:36 51°24.081 2°59.747 23.2315 0.009708 0.052431 -3.020363
2011-08-26 06:33:41 51°24.091 2°59.766 23.2585 0.009708 0.052433 -3.020363
2011-08-26 06:33:46 51°24.102 2°59.784 23.2536 0.009708 0.052433 -3.020363
2011-08-26 06:33:51 51°24.113 2°59.803 23.2875 0.009708 0.052434 -3.020363
2011-08-26 06:33:56 51°24.123 2°59.822 23.2674 0.009708 0.052435 -3.020363
2011-08-26 06:34:00 51°24.132 2°59.836 23.2621 0.009708 0.052437 -3.020363
2011-08-26 06:34:06 51°24.146 2°59.858 23.2463 0.009708 0.052439 -3.020363
2011-08-26 06:34:11 51°24.157 2°59.875 23.2606 0.009708 0.05244 -3.020363
2011-08-26 06:34:16 51°24.168 2°59.893 23.2816 0.009708 0.05244 -3.020363
2011-08-26 06:34:20 51°24.177 2°59.908 23.2755 0.009708 0.052442 -3.020363
2011-08-26 06:34:26 51°24.191 2°59.929 23.2679 0.009708 0.052443 -3.020363
2011-08-26 06:34:31 51°24.203 2°59.947 23.2633 0.009708 0.052445 -3.020363
2011-08-26 06:34:36 51°24.214 2°59.965 23.2507 0.009708 0.052446 -3.020363
2011-08-26 06:34:41 51°24.226 2°59.983 23.2514 0.009708 0.052447 -3.020363
2011-08-26 06:34:46 51°24.237 3°0.001 23.2422 0.009708 0.052447 -3.020363
2011-08-26 06:34:51 51°24.249 3°0.019 23.2383 0.009708 0.052449 -3.020363
2011-08-26 06:34:56 51°24.26 3°0.037 23.2663 0.009708 0.05245 -3.020363
2011-08-26 06:35:01 51°24.27 3°0.056 23.265 0.009708 0.052451 -3.020363
2011-08-26 06:35:06 51°24.282 3°0.074 23.2434 0.009708 0.052453 -3.020363
2011-08-26 06:35:11 51°24.292 3°0.093 23.2483 0.009708 0.052454 -3.020363
2011-08-26 06:35:16 51°24.303 3°0.112 23.2486 0.009708 0.052454 -3.020363
2011-08-26 06:35:21 51°24.314 3°0.13 23.2683 0.009708 0.052455 -3.020363
2011-08-26 06:35:26 51°24.325 3°0.149 23.2627 0.009708 0.052457 -3.020363
2011-08-26 06:35:31 51°24.336 3°0.168 23.3075 0.009708 0.052458 -3.020363
2011-08-26 06:35:36 51°24.347 3°0.187 23.2953 0.009708 0.05246 -3.020363
2011-08-26 06:35:40 51°24.356 3°0.202 23.2657 0.009708 0.052461 -3.020363
2011-08-26 06:35:46 51°24.37 3°0.223 23.2603 0.009708 0.052461 -3.020363
2011-08-26 06:35:51 51°24.381 3°0.241 23.2814 0.009708 0.052462 -3.020363
2011-08-26 06:35:56 51°24.393 3°0.259 23.2972 0.009708 0.052464 -3.020363
2011-08-26 06:36:00 51°24.402 3°0.273 23.2728 0.009708 0.052464 -3.020363
2011-08-26 06:36:06 51°24.416 3°0.294 23.2381 0.009708 0.052466 -3.020363
2011-08-26 06:36:11 51°24.428 3°0.311 23.2928 0.009708 0.052468 -3.020363
2011-08-26 06:36:16 51°24.44 3°0.328 23.3078 0.009708 0.052468 -3.020363
2011-08-26 06:36:21 51°24.452 3°0.345 23.2765 0.009708 0.052469 -3.020363
2011-08-26 06:36:26 51°24.464 3°0.361 23.2802 0.009708 0.05247 -3.020363
2011-08-26 06:36:31 51°24.477 3°0.378 23.248 0.009708 0.052471 -3.020363
2011-08-26 06:36:36 51°24.489 3°0.395 23.2595 0.009708 0.052473 -3.020363
2011-08-26 06:36:40 51°24.498 3°0.408 23.2603 0.009708 0.052474 -3.020363
2011-08-26 06:36:46 51°24.513 3°0.428 23.2525 0.009708 0.052474 -3.020363
2011-08-26 06:36:51 51°24.525 3°0.445 23.2712 0.009708 0.052476 -3.020363
2011-08-26 06:36:56 51°24.537 3°0.462 23.2543 0.009708 0.052477 -3.020363
2011-08-26 06:37:01 51°24.548 3°0.48 23.265 0.009708 0.052478 -3.020363
2011-08-26 06:37:06 51°24.56 3°0.498 23.2858 0.009708 0.05248 -3.020363
2011-08-26 06:37:11 51°24.571 3°0.516 23.2635 0.009708 0.052481 -3.020363
2011-08-26 06:37:16 51°24.582 3°0.534 23.302 0.009708 0.052481 -3.020363
2011-08-26 06:37:21 51°24.594 3°0.552 23.2769 0.009708 0.052483 -3.020363
2011-08-26 06:37:26 51°24.605 3°0.57 23.3045 0.009708 0.052484 -3.020363
2011-08-26 06:37:31 51°24.617 3°0.588 23.2915 0.009708 0.052486 -3.020363
2011-08-26 06:37:36 51°24.628 3°0.606 23.2768 0.009708 0.052488 -3.020363
2011-08-26 06:37:41 51°24.64 3°0.624 23.2859 0.009708 0.052489 -3.020363
2011-08-26 06:37:46 51°24.652 3°0.642 23.2889 0.009708 0.052489 -3.020363
2011-08-26 06:37:51 51°24.664 3°0.659 23.2689 0.009708 0.05249 -3.020363
2011-08-26 06:37:56 51°24.676 3°0.676 23.2362 0.009708 0.052492 -3.020363
2011-08-26 06:38:00 51°24.685 3°0.691 23.288 0.009708 0.052494 -3.020363
2011-08-26 06:38:06 51°24.699 3°0.713 23.2324 0.009708 0.052495 -3.020363
2011-08-26 06:38:11 51°24.71 3°0.732 23.2826 0.009708 0.052497 -3.020363
2011-08-26 06:38:16 51°24.721 3°0.752 23.2751 0.009708 0.052497 -3.020363
2011-08-26 06:38:20 51°24.73 3°0.767 23.2784 0.009708 0.052498 -3.020363
2011-08-26 06:38:26 51°24.743 3°0.791 23.282 0.009708 0.052499 -3.020363
2011-08-26 06:38:31 51°24.753 3°0.811 23.3026 0.009708 0.052501 -3.020363
2011-08-26 06:38:36 51°24.764 3°0.831 23.2949 0.009708 0.052503 -3.020363
2011-08-26 06:38:40 51°24.772 3°0.847 23.3028 0.009708 0.052504 -3.020363
2011-08-26 06:38:46 51°24.784 3°0.872 23.3385 0.009708 0.052504 -3.020363
2011-08-26 06:38:51 51°24.794 3°0.892 23.318 0.009708 0.052506 -3.020363
2011-08-26 06:38:56 51°24.805 3°0.912 23.3236 0.009708 0.052507 -3.020363
2011-08-26 06:39:01 51°24.816 3°0.931 23.3138 0.009708 0.052509 -3.020363
2011-08-26 06:39:06 51°24.827 3°0.951 23.34 0.009708 0.052511 -3.020363
2011-08-26 06:39:11 51°24.838 3°0.969 23.2925 0.009708 0.052512 -3.020363
2011-08-26 06:39:16 51°24.85 3°0.987 23.3409 0.009708 0.052512 -3.020363
2011-08-26 06:39:20 51°24.859 3°1.001 23.2798 0.009708 0.052514 -3.020363
2011-08-26 06:39:26 51°24.874 3°1.022 23.3059 0.009708 0.052516 -3.020363
2011-08-26 06:39:31 51°24.886 3°1.038 23.3198 0.009708 0.052517 -3.020363
2011-08-26 06:39:36 51°24.899 3°1.054 23.3368 0.009708 0.052519 -3.020363
2011-08-26 06:39:41 51°24.912 3°1.07 23.275 0.009708 0.052521 -3.020363
2011-08-26 06:39:46 51°24.925 3°1.085 23.3378 0.009708 0.052521 -3.020363
2011-08-26 06:39:51 51°24.939 3°1.1 23.2899 0.009708 0.052523 -3.020363
2011-08-26 06:39:56 51°24.952 3°1.115 23.2987 0.009708 0.052524 -3.020363
2011-08-26 06:40:00 51°24.963 3°1.127 23.3049 0.009708 0.052526 -3.020363
2011-08-26 06:40:06 51°24.979 3°1.146 23.2873 0.009708 0.052528 -3.020363
2011-08-26 06:40:11 51°24.992 3°1.161 23.3112 0.009708 0.052529 -3.020363
2011-08-26 06:40:16 51°25.005 3°1.176 23.3078 0.009708 0.052529 -3.020363
2011-08-26 06:40:21 51°25.018 3°1.192 23.2864 0.009708 0.052532 -3.020363
2011-08-26 06:40:26 51°25.031 3°1.208 23.3094 0.009708 0.052533 -3.020363
2011-08-26 06:40:31 51°25.044 3°1.224 23.313 0.009708 0.052534 -3.020363
2011-08-26 06:40:36 51°25.056 3°1.241 23.3111 0.009708 0.052535 -3.020363
2011-08-26 06:40:41 51°25.069 3°1.257 23.3548 0.009708 0.052537 -3.020363
2011-08-26 06:40:46 51°25.081 3°1.275 23.3246 0.009708 0.052537 -3.020363
2011-08-26 06:40:51 51°25.093 3°1.292 23.295 0.009708 0.052538 -3.020363
2011-08-26 06:40:56 51°25.106 3°1.308 23.3067 0.009708 0.05254 -3.020363
2011-08-26 06:41:01 51°25.118 3°1.325 23.3114 0.009708 0.052542 -3.020363
2011-08-26 06:41:06 51°25.13 3°1.342 23.2863 0.009708 0.052543 -3.020363
2011-08-26 06:41:11 51°25.143 3°1.359 23.324 0.009708 0.052545 -3.020363
2011-08-26 06:41:16 51°25.155 3°1.376 23.3347 0.009708 0.052545 -3.020363
2011-08-26 06:41:21 51°25.167 3°1.394 23.3342 0.009708 0.052546 -3.020363
2011-08-26 06:41:26 51°25.178 3°1.411 23.3533 0.009708 0.052548 -3.020363
2011-08-26 06:41:31 51°25.19 3°1.428 23.34 0.009708 0.05255 -3.020363
2011-08-26 06:41:36 51°25.202 3°1.446 23.3597 0.009708 0.052551 -3.020363
2011-08-26 06:41:41 51°25.214 3°1.462 23.3649 0.009708 0.052553 -3.020363
2011-08-26 06:41:46 51°25.227 3°1.478 23.3506 0.009708 0.052553 -3.020363
2011-08-26 06:41:51 51°25.239 3°1.493 23.2989 0.009708 0.052555 -3.020363